﻿<?xml version="1.0" encoding="utf-8"?><gpx creator="Garmin Desktop App" version="1.1" xsi:schemaLocation="http://www.topografix.com/GPX/1/1 http://www.topografix.com/GPX/1/1/gpx.xsd http://www.garmin.com/xmlschemas/WaypointExtension/v1 http://www8.garmin.com/xmlschemas/WaypointExtensionv1.xsd http://www.garmin.com/xmlschemas/TrackPointExtension/v1 http://www.garmin.com/xmlschemas/TrackPointExtensionv1.xsd http://www.garmin.com/xmlschemas/GpxExtensions/v3 http://www8.garmin.com/xmlschemas/GpxExtensionsv3.xsd http://www.garmin.com/xmlschemas/ActivityExtension/v1 http://www8.garmin.com/xmlschemas/ActivityExtensionv1.xsd http://www.garmin.com/xmlschemas/AdventuresExtensions/v1 http://www8.garmin.com/xmlschemas/AdventuresExtensionv1.xsd http://www.garmin.com/xmlschemas/PressureExtension/v1 http://www.garmin.com/xmlschemas/PressureExtensionv1.xsd http://www.garmin.com/xmlschemas/TripExtensions/v1 http://www.garmin.com/xmlschemas/TripExtensionsv1.xsd http://www.garmin.com/xmlschemas/TripMetaDataExtensions/v1 http://www.garmin.com/xmlschemas/TripMetaDataExtensionsv1.xsd http://www.garmin.com/xmlschemas/ViaPointTransportationModeExtensions/v1 http://www.garmin.com/xmlschemas/ViaPointTransportationModeExtensionsv1.xsd http://www.garmin.com/xmlschemas/CreationTimeExtension/v1 http://www.garmin.com/xmlschemas/CreationTimeExtensionsv1.xsd http://www.garmin.com/xmlschemas/AccelerationExtension/v1 http://www.garmin.com/xmlschemas/AccelerationExtensionv1.xsd http://www.garmin.com/xmlschemas/PowerExtension/v1 http://www.garmin.com/xmlschemas/PowerExtensionv1.xsd http://www.garmin.com/xmlschemas/VideoExtension/v1 http://www.garmin.com/xmlschemas/VideoExtensionv1.xsd" xmlns="http://www.topografix.com/GPX/1/1" xmlns:xsi="http://www.w3.org/2001/XMLSchema-instance" xmlns:wptx1="http://www.garmin.com/xmlschemas/WaypointExtension/v1" xmlns:gpxtrx="http://www.garmin.com/xmlschemas/GpxExtensions/v3" xmlns:gpxtpx="http://www.garmin.com/xmlschemas/TrackPointExtension/v1" xmlns:gpxx="http://www.garmin.com/xmlschemas/GpxExtensions/v3" xmlns:trp="http://www.garmin.com/xmlschemas/TripExtensions/v1" xmlns:adv="http://www.garmin.com/xmlschemas/AdventuresExtensions/v1" xmlns:prs="http://www.garmin.com/xmlschemas/PressureExtension/v1" xmlns:tmd="http://www.garmin.com/xmlschemas/TripMetaDataExtensions/v1" xmlns:vptm="http://www.garmin.com/xmlschemas/ViaPointTransportationModeExtensions/v1" xmlns:ctx="http://www.garmin.com/xmlschemas/CreationTimeExtension/v1" xmlns:gpxacc="http://www.garmin.com/xmlschemas/AccelerationExtension/v1" xmlns:gpxpx="http://www.garmin.com/xmlschemas/PowerExtension/v1" xmlns:vidx1="http://www.garmin.com/xmlschemas/VideoExtension/v1">

  <metadata>
    <link href="http://www.garmin.com">
      <text>Garmin International</text>
    </link>
    <time>2021-01-25T13:44:22Z</time>
    <bounds maxlat="46.038180012255907" maxlon="8.243570001795888" minlat="46.021931022405624" minlon="8.223568014800549" />
  </metadata>

  <trk>
    <name>pizzo-castello16</name>
    <desc>Traccia corrente: 28 MAR 2015 08:36</desc>
    <extensions>
      <gpxx:TrackExtension>
        <gpxx:DisplayColor>Yellow</gpxx:DisplayColor>
      </gpxx:TrackExtension>
    </extensions>
    <trkseg>
      <trkpt lat="46.021998999640346" lon="8.241467988118529">
        <ele>541.84002699999996</ele>
        <time>2015-03-28T07:42:56Z</time>
      </trkpt>
      <trkpt lat="46.022104024887085" lon="8.241550968959928">
        <ele>543.76000999999997</ele>
        <time>2015-03-28T07:43:15Z</time>
      </trkpt>
      <trkpt lat="46.022097989916801" lon="8.241347959265113">
        <ele>547.13000499999998</ele>
        <time>2015-03-28T07:43:32Z</time>
      </trkpt>
      <trkpt lat="46.02209597826004" lon="8.241313006728888">
        <ele>547.13000499999998</ele>
        <time>2015-03-28T07:43:34Z</time>
      </trkpt>
      <trkpt lat="46.022120034322143" lon="8.241136986762285">
        <ele>549.04998799999998</ele>
        <time>2015-03-28T07:43:47Z</time>
      </trkpt>
      <trkpt lat="46.022126991301775" lon="8.240884020924568">
        <ele>551.92999299999997</ele>
        <time>2015-03-28T07:44:05Z</time>
      </trkpt>
      <trkpt lat="46.022084997966886" lon="8.240734990686178">
        <ele>553.85998500000005</ele>
        <time>2015-03-28T07:44:17Z</time>
      </trkpt>
      <trkpt lat="46.022119028493762" lon="8.240504991263151">
        <ele>557.22003199999995</ele>
        <time>2015-03-28T07:44:34Z</time>
      </trkpt>
      <trkpt lat="46.022078040987253" lon="8.240275997668505">
        <ele>559.61999500000002</ele>
        <time>2015-03-28T07:44:55Z</time>
      </trkpt>
      <trkpt lat="46.02209203876555" lon="8.240185976028442">
        <ele>561.07000700000003</ele>
        <time>2015-03-28T07:45:06Z</time>
      </trkpt>
      <trkpt lat="46.022040992975235" lon="8.240107018500567">
        <ele>562.51000999999997</ele>
        <time>2015-03-28T07:45:14Z</time>
      </trkpt>
      <trkpt lat="46.022036969661713" lon="8.239910965785384">
        <ele>565.86999500000002</ele>
        <time>2015-03-28T07:45:31Z</time>
      </trkpt>
      <trkpt lat="46.022152975201607" lon="8.239847011864185">
        <ele>567.79998799999998</ele>
        <time>2015-03-28T07:45:49Z</time>
      </trkpt>
      <trkpt lat="46.022253977134824" lon="8.239851035177708">
        <ele>569.72003199999995</ele>
        <time>2015-03-28T07:46:09Z</time>
      </trkpt>
      <trkpt lat="46.022299993783236" lon="8.239753972738981">
        <ele>572.11999500000002</ele>
        <time>2015-03-28T07:46:29Z</time>
      </trkpt>
      <trkpt lat="46.022302005439997" lon="8.23962296359241">
        <ele>574.52996800000005</ele>
        <time>2015-03-28T07:46:51Z</time>
      </trkpt>
      <trkpt lat="46.022305022925138" lon="8.239616006612778">
        <ele>574.52996800000005</ele>
        <time>2015-03-28T07:48:06Z</time>
      </trkpt>
      <trkpt lat="46.022339975461364" lon="8.239457001909614">
        <ele>577.40997300000004</ele>
        <time>2015-03-28T07:48:21Z</time>
      </trkpt>
      <trkpt lat="46.022355984896421" lon="8.239398999139667">
        <ele>578.36999500000002</ele>
        <time>2015-03-28T07:48:26Z</time>
      </trkpt>
      <trkpt lat="46.022385992109776" lon="8.239185009151697">
        <ele>581.72997999999995</ele>
        <time>2015-03-28T07:48:41Z</time>
      </trkpt>
      <trkpt lat="46.022412981837988" lon="8.238959033042193">
        <ele>584.61999500000002</ele>
        <time>2015-03-28T07:48:58Z</time>
      </trkpt>
      <trkpt lat="46.022451035678387" lon="8.238785024732351">
        <ele>586.54003899999998</ele>
        <time>2015-03-28T07:49:11Z</time>
      </trkpt>
      <trkpt lat="46.02256796322763" lon="8.238553013652563">
        <ele>589.90997300000004</ele>
        <time>2015-03-28T07:49:29Z</time>
      </trkpt>
      <trkpt lat="46.022591013461351" lon="8.238502973690629">
        <ele>590.39001499999995</ele>
        <time>2015-03-28T07:49:33Z</time>
      </trkpt>
      <trkpt lat="46.022723028436303" lon="8.238402977585793">
        <ele>593.75</ele>
        <time>2015-03-28T07:49:49Z</time>
      </trkpt>
      <trkpt lat="46.022839033976197" lon="8.238351009786129">
        <ele>597.11999500000002</ele>
        <time>2015-03-28T07:50:03Z</time>
      </trkpt>
      <trkpt lat="46.022938024252653" lon="8.2383749820292">
        <ele>600</ele>
        <time>2015-03-28T07:50:16Z</time>
      </trkpt>
      <trkpt lat="46.022961996495724" lon="8.238379005342722">
        <ele>600.96002199999998</ele>
        <time>2015-03-28T07:50:19Z</time>
      </trkpt>
      <trkpt lat="46.023072972893715" lon="8.238402977585793">
        <ele>604.330017</ele>
        <time>2015-03-28T07:50:34Z</time>
      </trkpt>
      <trkpt lat="46.023175986483693" lon="8.23848101310432">
        <ele>607.69000200000005</ele>
        <time>2015-03-28T07:50:49Z</time>
      </trkpt>
      <trkpt lat="46.023259973153472" lon="8.238572040572763">
        <ele>610.09002699999996</ele>
        <time>2015-03-28T07:51:11Z</time>
      </trkpt>
      <trkpt lat="46.023213034495711" lon="8.238607998937368">
        <ele>612.01995799999997</ele>
        <time>2015-03-28T07:51:28Z</time>
      </trkpt>
      <trkpt lat="46.023196019232273" lon="8.23865401558578">
        <ele>612.97997999999995</ele>
        <time>2015-03-28T07:51:33Z</time>
      </trkpt>
      <trkpt lat="46.023186966776848" lon="8.238859958946705">
        <ele>616.34002699999996</ele>
        <time>2015-03-28T07:51:50Z</time>
      </trkpt>
      <trkpt lat="46.023217979818583" lon="8.2389120105654">
        <ele>619.22997999999995</ele>
        <time>2015-03-28T07:52:04Z</time>
      </trkpt>
      <trkpt lat="46.023267013952136" lon="8.238951992243528">
        <ele>622.59002699999996</ele>
        <time>2015-03-28T07:52:20Z</time>
      </trkpt>
      <trkpt lat="46.023219991475344" lon="8.239071015268564">
        <ele>625.46997099999999</ele>
        <time>2015-03-28T07:52:37Z</time>
      </trkpt>
      <trkpt lat="46.023280005902052" lon="8.239133041352034">
        <ele>627.87994400000002</ele>
        <time>2015-03-28T07:52:51Z</time>
      </trkpt>
      <trkpt lat="46.023292997851968" lon="8.23916899971664">
        <ele>628.839966</ele>
        <time>2015-03-28T07:53:13Z</time>
      </trkpt>
      <trkpt lat="46.023257961496711" lon="8.239155001938343">
        <ele>629.79998799999998</ele>
        <time>2015-03-28T07:53:30Z</time>
      </trkpt>
      <trkpt lat="46.023311018943787" lon="8.23910303413868">
        <ele>632.67999299999997</ele>
        <time>2015-03-28T07:53:53Z</time>
      </trkpt>
      <trkpt lat="46.023332979530096" lon="8.239077972248197">
        <ele>633.65002400000003</ele>
        <time>2015-03-28T07:54:09Z</time>
      </trkpt>
      <trkpt lat="46.023345971480012" lon="8.239164976403117">
        <ele>637.00994900000001</ele>
        <time>2015-03-28T07:54:30Z</time>
      </trkpt>
      <trkpt lat="46.023282017558813" lon="8.239305038005114">
        <ele>639.40997300000004</ele>
        <time>2015-03-28T07:54:43Z</time>
      </trkpt>
      <trkpt lat="46.023348988965154" lon="8.239367986097932">
        <ele>641.82000700000003</ele>
        <time>2015-03-28T07:54:55Z</time>
      </trkpt>
      <trkpt lat="46.02340498007834" lon="8.239435963332653">
        <ele>643.73999000000003</ele>
        <time>2015-03-28T07:55:13Z</time>
      </trkpt>
      <trkpt lat="46.02342501282692" lon="8.239481979981065">
        <ele>647.09997599999997</ele>
        <time>2015-03-28T07:55:32Z</time>
      </trkpt>
      <trkpt lat="46.02336198091507" lon="8.239651964977384">
        <ele>649.50994900000001</ele>
        <time>2015-03-28T07:55:52Z</time>
      </trkpt>
      <trkpt lat="46.023352006450295" lon="8.239712985232472">
        <ele>652.86999500000002</ele>
        <time>2015-03-28T07:56:09Z</time>
      </trkpt>
      <trkpt lat="46.023303978145123" lon="8.239890011027455">
        <ele>655.76000999999997</ele>
        <time>2015-03-28T07:56:28Z</time>
      </trkpt>
      <trkpt lat="46.023321999236941" lon="8.240078017115593">
        <ele>655.76000999999997</ele>
        <time>2015-03-28T07:56:43Z</time>
      </trkpt>
      <trkpt lat="46.023342031985521" lon="8.240220006555319">
        <ele>659.12005599999998</ele>
        <time>2015-03-28T07:56:58Z</time>
      </trkpt>
      <trkpt lat="46.023321999236941" lon="8.240232998505235">
        <ele>661.52002000000005</ele>
        <time>2015-03-28T07:57:15Z</time>
      </trkpt>
      <trkpt lat="46.023377990350127" lon="8.240150017663837">
        <ele>663.92999299999997</ele>
        <time>2015-03-28T07:57:30Z</time>
      </trkpt>
      <trkpt lat="46.023401040583849" lon="8.240073993802071">
        <ele>666.80999799999995</ele>
        <time>2015-03-28T07:57:46Z</time>
      </trkpt>
      <trkpt lat="46.023407997563481" lon="8.240002999082208">
        <ele>670.17999299999997</ele>
        <time>2015-03-28T07:58:02Z</time>
      </trkpt>
      <trkpt lat="46.023519979789853" lon="8.240068964660168">
        <ele>673.05999799999995</ele>
        <time>2015-03-28T07:58:18Z</time>
      </trkpt>
      <trkpt lat="46.023629028350115" lon="8.240316985175014">
        <ele>675.94000200000005</ele>
        <time>2015-03-28T07:58:38Z</time>
      </trkpt>
      <trkpt lat="46.02366297505796" lon="8.240505997091532">
        <ele>679.30999799999995</ele>
        <time>2015-03-28T07:59:00Z</time>
      </trkpt>
      <trkpt lat="46.023721983656287" lon="8.240590989589691">
        <ele>682.19000200000005</ele>
        <time>2015-03-28T07:59:18Z</time>
      </trkpt>
      <trkpt lat="46.023754002526402" lon="8.240667013451457">
        <ele>684.59997599999997</ele>
        <time>2015-03-28T07:59:32Z</time>
      </trkpt>
      <trkpt lat="46.023754002526402" lon="8.24054597876966">
        <ele>687.96002199999998</ele>
        <time>2015-03-28T07:59:51Z</time>
      </trkpt>
      <trkpt lat="46.023788033053279" lon="8.240436008200049">
        <ele>689.87994400000002</ele>
        <time>2015-03-28T08:00:05Z</time>
      </trkpt>
      <trkpt lat="46.023806976154447" lon="8.240346992388368">
        <ele>690.839966</ele>
        <time>2015-03-28T08:00:13Z</time>
      </trkpt>
      <trkpt lat="46.02383203804493" lon="8.240300975739956">
        <ele>691.330017</ele>
        <time>2015-03-28T08:00:16Z</time>
      </trkpt>
      <trkpt lat="46.02387797087431" lon="8.240114981308579">
        <ele>691.80999799999995</ele>
        <time>2015-03-28T08:00:31Z</time>
      </trkpt>
      <trkpt lat="46.023881994187832" lon="8.239932004362345">
        <ele>694.69000200000005</ele>
        <time>2015-03-28T08:00:48Z</time>
      </trkpt>
      <trkpt lat="46.023972015827894" lon="8.239904008805752">
        <ele>697.57000700000003</ele>
        <time>2015-03-28T08:01:04Z</time>
      </trkpt>
      <trkpt lat="46.024021971970797" lon="8.239905014634132">
        <ele>699.02002000000005</ele>
        <time>2015-03-28T08:01:32Z</time>
      </trkpt>
      <trkpt lat="46.024038987234235" lon="8.239913983270526">
        <ele>699.97997999999995</ele>
        <time>2015-03-28T08:01:34Z</time>
      </trkpt>
      <trkpt lat="46.024107970297337" lon="8.239992018789053">
        <ele>702.37994400000002</ele>
        <time>2015-03-28T08:01:49Z</time>
      </trkpt>
      <trkpt lat="46.024150969460607" lon="8.240021020174027">
        <ele>705.74993900000004</ele>
        <time>2015-03-28T08:02:05Z</time>
      </trkpt>
      <trkpt lat="46.0241789650172" lon="8.240018002688885">
        <ele>709.10998500000005</ele>
        <time>2015-03-28T08:02:22Z</time>
      </trkpt>
      <trkpt lat="46.024148035794497" lon="8.239926975220442">
        <ele>711.03002900000001</ele>
        <time>2015-03-28T08:02:32Z</time>
      </trkpt>
      <trkpt lat="46.024152981117368" lon="8.239795966073871">
        <ele>711.99005099999999</ele>
        <time>2015-03-28T08:02:42Z</time>
      </trkpt>
      <trkpt lat="46.024244008585811" lon="8.239740980789065">
        <ele>714.40002400000003</ele>
        <time>2015-03-28T08:02:56Z</time>
      </trkpt>
      <trkpt lat="46.024292958900332" lon="8.23977098800242">
        <ele>717.27996800000005</ele>
        <time>2015-03-28T08:03:09Z</time>
      </trkpt>
      <trkpt lat="46.024377029389143" lon="8.239790014922619">
        <ele>720.64996299999996</ele>
        <time>2015-03-28T08:03:23Z</time>
      </trkpt>
      <trkpt lat="46.024361019954085" lon="8.239912977442145">
        <ele>723.53002900000001</ele>
        <time>2015-03-28T08:03:41Z</time>
      </trkpt>
      <trkpt lat="46.024407958611846" lon="8.23990099132061">
        <ele>726.89001499999995</ele>
        <time>2015-03-28T08:03:57Z</time>
      </trkpt>
      <trkpt lat="46.024453975260258" lon="8.23996402323246">
        <ele>729.77996800000005</ele>
        <time>2015-03-28T08:04:14Z</time>
      </trkpt>
      <trkpt lat="46.024459004402161" lon="8.24002998881042">
        <ele>730.73999000000003</ele>
        <time>2015-03-28T08:04:20Z</time>
      </trkpt>
      <trkpt lat="46.024527987465262" lon="8.240080028772354">
        <ele>733.61999500000002</ele>
        <time>2015-03-28T08:04:34Z</time>
      </trkpt>
      <trkpt lat="46.024566041305661" lon="8.240125039592385">
        <ele>736.03002900000001</ele>
        <time>2015-03-28T08:04:46Z</time>
      </trkpt>
      <trkpt lat="46.024597976356745" lon="8.240172984078527">
        <ele>738.90997300000004</ele>
        <time>2015-03-28T08:05:01Z</time>
      </trkpt>
      <trkpt lat="46.024625971913338" lon="8.240154962986708">
        <ele>741.79003899999998</ele>
        <time>2015-03-28T08:05:15Z</time>
      </trkpt>
      <trkpt lat="46.024631001055241" lon="8.240142976865172">
        <ele>744.20001200000002</ele>
        <time>2015-03-28T08:05:30Z</time>
      </trkpt>
      <trkpt lat="46.024666037410498" lon="8.240004004910588">
        <ele>746.60003700000004</ele>
        <time>2015-03-28T08:05:44Z</time>
      </trkpt>
      <trkpt lat="46.024681041017175" lon="8.239962011575699">
        <ele>746.60003700000004</ele>
        <time>2015-03-28T08:05:47Z</time>
      </trkpt>
      <trkpt lat="46.024703001603484" lon="8.239954970777035">
        <ele>747.07995600000004</ele>
        <time>2015-03-28T08:05:49Z</time>
      </trkpt>
      <trkpt lat="46.024866029620171" lon="8.239863021299243">
        <ele>748.03997800000002</ele>
        <time>2015-03-28T08:06:02Z</time>
      </trkpt>
      <trkpt lat="46.024919003248215" lon="8.239817004650831">
        <ele>748.51995799999997</ele>
        <time>2015-03-28T08:06:07Z</time>
      </trkpt>
      <trkpt lat="46.025026962161064" lon="8.239772999659181">
        <ele>751.40997300000004</ele>
        <time>2015-03-28T08:06:22Z</time>
      </trkpt>
      <trkpt lat="46.025098962709308" lon="8.239725977182388">
        <ele>754.77002000000005</ele>
        <time>2015-03-28T08:06:35Z</time>
      </trkpt>
      <trkpt lat="46.025159982964396" lon="8.239631010219455">
        <ele>758.14001499999995</ele>
        <time>2015-03-28T08:06:51Z</time>
      </trkpt>
      <trkpt lat="46.025198958814144" lon="8.23961902409792">
        <ele>761.01995799999997</ele>
        <time>2015-03-28T08:07:05Z</time>
      </trkpt>
      <trkpt lat="46.025216979905963" lon="8.23957602493465">
        <ele>763.419983</ele>
        <time>2015-03-28T08:07:21Z</time>
      </trkpt>
      <trkpt lat="46.025267019867897" lon="8.23951399885118">
        <ele>765.830017</ele>
        <time>2015-03-28T08:07:49Z</time>
      </trkpt>
      <trkpt lat="46.025346983224154" lon="8.23944996111095">
        <ele>768.23004200000003</ele>
        <time>2015-03-28T08:08:02Z</time>
      </trkpt>
      <trkpt lat="46.025376990437508" lon="8.239393969997764">
        <ele>771.10998500000005</ele>
        <time>2015-03-28T08:08:15Z</time>
      </trkpt>
      <trkpt lat="46.025385037064552" lon="8.239306965842843">
        <ele>772.55999799999995</ele>
        <time>2015-03-28T08:08:24Z</time>
      </trkpt>
      <trkpt lat="46.025441028177738" lon="8.239099010825157">
        <ele>774.47997999999995</ele>
        <time>2015-03-28T08:08:37Z</time>
      </trkpt>
      <trkpt lat="46.02553297765553" lon="8.23901996947825">
        <ele>777.36004600000001</ele>
        <time>2015-03-28T08:08:51Z</time>
      </trkpt>
      <trkpt lat="46.025572037324309" lon="8.23901804164052">
        <ele>780.25</ele>
        <time>2015-03-28T08:09:05Z</time>
      </trkpt>
      <trkpt lat="46.025671027600765" lon="8.238970013335347">
        <ele>781.69006300000001</ele>
        <time>2015-03-28T08:09:22Z</time>
      </trkpt>
      <trkpt lat="46.025755014270544" lon="8.238972024992108">
        <ele>783.60998500000005</ele>
        <time>2015-03-28T08:09:35Z</time>
      </trkpt>
      <trkpt lat="46.025842018425465" lon="8.239050982519984">
        <ele>786.01995799999997</ele>
        <time>2015-03-28T08:09:53Z</time>
      </trkpt>
      <trkpt lat="46.025858027860522" lon="8.239165982231498">
        <ele>788.90002400000003</ele>
        <time>2015-03-28T08:10:18Z</time>
      </trkpt>
      <trkpt lat="46.025836989283562" lon="8.239233959466219">
        <ele>791.77996800000005</ele>
        <time>2015-03-28T08:10:32Z</time>
      </trkpt>
      <trkpt lat="46.025836989283562" lon="8.239308977499604">
        <ele>794.669983</ele>
        <time>2015-03-28T08:10:48Z</time>
      </trkpt>
      <trkpt lat="46.025652000680566" lon="8.239463036879897">
        <ele>797.54998799999998</ele>
        <time>2015-03-28T08:11:09Z</time>
      </trkpt>
      <trkpt lat="46.025696005672216" lon="8.239543000236154">
        <ele>800.919983</ele>
        <time>2015-03-28T08:11:22Z</time>
      </trkpt>
      <trkpt lat="46.025841012597084" lon="8.239531014114618">
        <ele>803.79998799999998</ele>
        <time>2015-03-28T08:11:39Z</time>
      </trkpt>
      <trkpt lat="46.025931034237146" lon="8.239547023549676">
        <ele>805.71997099999999</ele>
        <time>2015-03-28T08:11:51Z</time>
      </trkpt>
      <trkpt lat="46.026004962623119" lon="8.239612989127636">
        <ele>809.089966</ele>
        <time>2015-03-28T08:12:06Z</time>
      </trkpt>
      <trkpt lat="46.025942014530301" lon="8.239671997725964">
        <ele>811.97003199999995</ele>
        <time>2015-03-28T08:12:23Z</time>
      </trkpt>
      <trkpt lat="46.025903038680553" lon="8.239760007709265">
        <ele>815.34002699999996</ele>
        <time>2015-03-28T08:12:38Z</time>
      </trkpt>
      <trkpt lat="46.025815028697252" lon="8.239821027964354">
        <ele>818.21997099999999</ele>
        <time>2015-03-28T08:12:56Z</time>
      </trkpt>
      <trkpt lat="46.025844030082226" lon="8.239852963015437">
        <ele>819.17999299999997</ele>
        <time>2015-03-28T08:13:02Z</time>
      </trkpt>
      <trkpt lat="46.025915024802089" lon="8.23988095857203">
        <ele>822.06005900000002</ele>
        <time>2015-03-28T08:13:15Z</time>
      </trkpt>
      <trkpt lat="46.025855010375381" lon="8.239930998533964">
        <ele>824.94995100000006</ele>
        <time>2015-03-28T08:13:35Z</time>
      </trkpt>
      <trkpt lat="46.025903038680553" lon="8.240019008517265">
        <ele>827.34997599999997</ele>
        <time>2015-03-28T08:13:58Z</time>
      </trkpt>
      <trkpt lat="46.025911001488566" lon="8.240073993802071">
        <ele>830.71997099999999</ele>
        <time>2015-03-28T08:14:12Z</time>
      </trkpt>
      <trkpt lat="46.02598300203681" lon="8.240147000178695">
        <ele>834.080017</ele>
        <time>2015-03-28T08:14:28Z</time>
      </trkpt>
      <trkpt lat="46.026062965393066" lon="8.24015898630023">
        <ele>836.95996100000002</ele>
        <time>2015-03-28T08:14:43Z</time>
      </trkpt>
      <trkpt lat="46.026099007576704" lon="8.240176001563668">
        <ele>839.84997599999997</ele>
        <time>2015-03-28T08:14:58Z</time>
      </trkpt>
      <trkpt lat="46.026151981204748" lon="8.240227969363332">
        <ele>841.77002000000005</ele>
        <time>2015-03-28T08:15:10Z</time>
      </trkpt>
      <trkpt lat="46.026232028380036" lon="8.240283038467169">
        <ele>845.14001499999995</ele>
        <time>2015-03-28T08:15:25Z</time>
      </trkpt>
      <trkpt lat="46.02630503475666" lon="8.240335006266832">
        <ele>847.53997800000002</ele>
        <time>2015-03-28T08:15:42Z</time>
      </trkpt>
      <trkpt lat="46.026286007836461" lon="8.240430979058147">
        <ele>850.419983</ele>
        <time>2015-03-28T08:16:01Z</time>
      </trkpt>
      <trkpt lat="46.026234962046146" lon="8.240556037053466">
        <ele>853.78997800000002</ele>
        <time>2015-03-28T08:16:15Z</time>
      </trkpt>
      <trkpt lat="46.026301011443138" lon="8.240619990974665">
        <ele>856.67004399999996</ele>
        <time>2015-03-28T08:16:28Z</time>
      </trkpt>
      <trkpt lat="46.026406958699226" lon="8.240670030936599">
        <ele>859.56005900000002</ele>
        <time>2015-03-28T08:16:43Z</time>
      </trkpt>
      <trkpt lat="46.026480970904231" lon="8.240684028714895">
        <ele>862.919983</ele>
        <time>2015-03-28T08:16:55Z</time>
      </trkpt>
      <trkpt lat="46.026554983109236" lon="8.240706995129585">
        <ele>865.80004899999994</ele>
        <time>2015-03-28T08:17:09Z</time>
      </trkpt>
      <trkpt lat="46.026609968394041" lon="8.24073800817132">
        <ele>867.73004200000003</ele>
        <time>2015-03-28T08:17:17Z</time>
      </trkpt>
      <trkpt lat="46.02667098864913" lon="8.240745970979333">
        <ele>870.13000499999998</ele>
        <time>2015-03-28T08:17:33Z</time>
      </trkpt>
      <trkpt lat="46.0267139878124" lon="8.240768015384674">
        <ele>873.01000999999997</ele>
        <time>2015-03-28T08:17:55Z</time>
      </trkpt>
      <trkpt lat="46.026685992255807" lon="8.240847978740931">
        <ele>875.90002400000003</ele>
        <time>2015-03-28T08:18:10Z</time>
      </trkpt>
      <trkpt lat="46.026682974770665" lon="8.24088703840971">
        <ele>879.25994900000001</ele>
        <time>2015-03-28T08:18:25Z</time>
      </trkpt>
      <trkpt lat="46.02675698697567" lon="8.240856025367975">
        <ele>880.71002199999998</ele>
        <time>2015-03-28T08:18:35Z</time>
      </trkpt>
      <trkpt lat="46.026792023330927" lon="8.240828029811382">
        <ele>881.18994099999998</ele>
        <time>2015-03-28T08:18:39Z</time>
      </trkpt>
      <trkpt lat="46.026883972808719" lon="8.240829035639763">
        <ele>883.589966</ele>
        <time>2015-03-28T08:18:53Z</time>
      </trkpt>
      <trkpt lat="46.026902999728918" lon="8.240850996226072">
        <ele>886.95001200000002</ele>
        <time>2015-03-28T08:19:11Z</time>
      </trkpt>
      <trkpt lat="46.026996960863471" lon="8.24093003757298">
        <ele>889.84002699999996</ele>
        <time>2015-03-28T08:19:29Z</time>
      </trkpt>
      <trkpt lat="46.026938036084175" lon="8.240986028686166">
        <ele>892.71997099999999</ele>
        <time>2015-03-28T08:19:45Z</time>
      </trkpt>
      <trkpt lat="46.027000984176993" lon="8.241003965958953">
        <ele>896.089966</ele>
        <time>2015-03-28T08:20:00Z</time>
      </trkpt>
      <trkpt lat="46.026954967528582" lon="8.241072027012706">
        <ele>898.97003199999995</ele>
        <time>2015-03-28T08:20:16Z</time>
      </trkpt>
      <trkpt lat="46.027004001662135" lon="8.241088036447763">
        <ele>901.36999500000002</ele>
        <time>2015-03-28T08:20:29Z</time>
      </trkpt>
      <trkpt lat="46.026980029419065" lon="8.241164982318878">
        <ele>903.77996800000005</ele>
        <time>2015-03-28T08:20:43Z</time>
      </trkpt>
      <trkpt lat="46.026942981407046" lon="8.241241006180644">
        <ele>906.65997300000004</ele>
        <time>2015-03-28T08:21:00Z</time>
      </trkpt>
      <trkpt lat="46.026901993900537" lon="8.241356005892158">
        <ele>910.03002900000001</ele>
        <time>2015-03-28T08:21:17Z</time>
      </trkpt>
      <trkpt lat="46.026861006394029" lon="8.241419959813356">
        <ele>912.43005400000004</ele>
        <time>2015-03-28T08:21:31Z</time>
      </trkpt>
      <trkpt lat="46.026881039142609" lon="8.241528002545238">
        <ele>915.30999799999995</ele>
        <time>2015-03-28T08:21:47Z</time>
      </trkpt>
      <trkpt lat="46.026948010548949" lon="8.241583993658423">
        <ele>917.71997099999999</ele>
        <time>2015-03-28T08:21:59Z</time>
      </trkpt>
      <trkpt lat="46.026915991678834" lon="8.241606038063765">
        <ele>919.64001499999995</ele>
        <time>2015-03-28T08:22:13Z</time>
      </trkpt>
      <trkpt lat="46.026884978637099" lon="8.241574019193649">
        <ele>919.15997300000004</ele>
        <time>2015-03-28T08:22:30Z</time>
      </trkpt>
      <trkpt lat="46.026838961988688" lon="8.241563960909843">
        <ele>918.20001200000002</ele>
        <time>2015-03-28T08:23:10Z</time>
      </trkpt>
      <trkpt lat="46.026879027485847" lon="8.241616012528539">
        <ele>920.11999500000002</ele>
        <time>2015-03-28T08:23:26Z</time>
      </trkpt>
      <trkpt lat="46.026905011385679" lon="8.241639984771609">
        <ele>920.60003700000004</ele>
        <time>2015-03-28T08:23:33Z</time>
      </trkpt>
      <trkpt lat="46.026982041075826" lon="8.241720031946898">
        <ele>922.51995799999997</ele>
        <time>2015-03-28T08:23:43Z</time>
      </trkpt>
      <trkpt lat="46.027041971683502" lon="8.241825979202986">
        <ele>925.410034</ele>
        <time>2015-03-28T08:23:55Z</time>
      </trkpt>
      <trkpt lat="46.027056975290179" lon="8.241851963102818">
        <ele>925.88995399999999</ele>
        <time>2015-03-28T08:23:57Z</time>
      </trkpt>
      <trkpt lat="46.027083965018392" lon="8.241972997784615">
        <ele>926.36999500000002</ele>
        <time>2015-03-28T08:24:06Z</time>
      </trkpt>
      <trkpt lat="46.027131993323565" lon="8.242052039131522">
        <ele>929.72997999999995</ele>
        <time>2015-03-28T08:24:20Z</time>
      </trkpt>
      <trkpt lat="46.02720801718533" lon="8.242104006931186">
        <ele>933.10003700000004</ele>
        <time>2015-03-28T08:24:34Z</time>
      </trkpt>
      <trkpt lat="46.02727297693491" lon="8.242125967517495">
        <ele>935.97997999999995</ele>
        <time>2015-03-28T08:24:49Z</time>
      </trkpt>
      <trkpt lat="46.027364004403353" lon="8.242022031918168">
        <ele>938.85998500000005</ele>
        <time>2015-03-28T08:25:07Z</time>
      </trkpt>
      <trkpt lat="46.027339026331902" lon="8.241961011663079">
        <ele>941.75</ele>
        <time>2015-03-28T08:25:29Z</time>
      </trkpt>
      <trkpt lat="46.02733701467514" lon="8.241946008056402">
        <ele>942.22997999999995</ele>
        <time>2015-03-28T08:25:56Z</time>
      </trkpt>
      <trkpt lat="46.02735897526145" lon="8.241988001391292">
        <ele>942.22997999999995</ele>
        <time>2015-03-28T08:26:34Z</time>
      </trkpt>
      <trkpt lat="46.027409015223384" lon="8.24194198474288">
        <ele>944.15002400000003</ele>
        <time>2015-03-28T08:26:43Z</time>
      </trkpt>
      <trkpt lat="46.027496019378304" lon="8.241910971701145">
        <ele>946.55999799999995</ele>
        <time>2015-03-28T08:26:59Z</time>
      </trkpt>
      <trkpt lat="46.027513034641743" lon="8.241938967257738">
        <ele>947.04003899999998</ele>
        <time>2015-03-28T08:27:20Z</time>
      </trkpt>
      <trkpt lat="46.027511022984982" lon="8.241938967257738">
        <ele>947.51995799999997</ele>
        <time>2015-03-28T08:28:07Z</time>
      </trkpt>
      <trkpt lat="46.027502976357937" lon="8.241994958370924">
        <ele>947.51995799999997</ele>
        <time>2015-03-28T08:28:23Z</time>
      </trkpt>
      <trkpt lat="46.027601966634393" lon="8.241992024704814">
        <ele>949.919983</ele>
        <time>2015-03-28T08:28:36Z</time>
      </trkpt>
      <trkpt lat="46.027653012424707" lon="8.242031000554562">
        <ele>952.79998799999998</ele>
        <time>2015-03-28T08:28:52Z</time>
      </trkpt>
      <trkpt lat="46.027693999931216" lon="8.242007028311491">
        <ele>956.17004399999996</ele>
        <time>2015-03-28T08:29:09Z</time>
      </trkpt>
      <trkpt lat="46.027709003537893" lon="8.242011973634362">
        <ele>958.57000700000003</ele>
        <time>2015-03-28T08:29:23Z</time>
      </trkpt>
      <trkpt lat="46.027715960517526" lon="8.242017002776265">
        <ele>959.04998799999998</ele>
        <time>2015-03-28T08:30:07Z</time>
      </trkpt>
      <trkpt lat="46.027728030458093" lon="8.241968974471092">
        <ele>960.48999000000003</ele>
        <time>2015-03-28T08:30:25Z</time>
      </trkpt>
      <trkpt lat="46.027758959680796" lon="8.24198498390615">
        <ele>962.90002400000003</ele>
        <time>2015-03-28T08:30:40Z</time>
      </trkpt>
      <trkpt lat="46.02778896689415" lon="8.242017002776265">
        <ele>966.25994900000001</ele>
        <time>2015-03-28T08:30:54Z</time>
      </trkpt>
      <trkpt lat="46.027847975492477" lon="8.242050027474761">
        <ele>967.69995100000006</ele>
        <time>2015-03-28T08:31:05Z</time>
      </trkpt>
      <trkpt lat="46.027884017676115" lon="8.242095038294792">
        <ele>969.62994400000002</ele>
        <time>2015-03-28T08:31:23Z</time>
      </trkpt>
      <trkpt lat="46.027890974655747" lon="8.242107024416328">
        <ele>968.67004399999996</ele>
        <time>2015-03-28T08:31:26Z</time>
      </trkpt>
      <trkpt lat="46.027983007952571" lon="8.242226969450712">
        <ele>971.54998799999998</ele>
        <time>2015-03-28T08:31:44Z</time>
      </trkpt>
      <trkpt lat="46.028008991852403" lon="8.242287989705801">
        <ele>973.95001200000002</ele>
        <time>2015-03-28T08:31:56Z</time>
      </trkpt>
      <trkpt lat="46.028079986572266" lon="8.242319002747536">
        <ele>976.84002699999996</ele>
        <time>2015-03-28T08:32:11Z</time>
      </trkpt>
      <trkpt lat="46.02806699462235" lon="8.242451017722487">
        <ele>979.71997099999999</ele>
        <time>2015-03-28T08:32:26Z</time>
      </trkpt>
      <trkpt lat="46.028128014877439" lon="8.242434002459049">
        <ele>983.089966</ele>
        <time>2015-03-28T08:32:43Z</time>
      </trkpt>
      <trkpt lat="46.028147041797638" lon="8.242553025484085">
        <ele>985.97003199999995</ele>
        <time>2015-03-28T08:33:00Z</time>
      </trkpt>
      <trkpt lat="46.028169002383947" lon="8.242561994120479">
        <ele>989.32995600000004</ele>
        <time>2015-03-28T08:33:17Z</time>
      </trkpt>
      <trkpt lat="46.028227005153894" lon="8.24254397302866">
        <ele>992.21997099999999</ele>
        <time>2015-03-28T08:33:32Z</time>
      </trkpt>
      <trkpt lat="46.028220970183611" lon="8.242697026580572">
        <ele>995.09997599999997</ele>
        <time>2015-03-28T08:33:50Z</time>
      </trkpt>
      <trkpt lat="46.028224993497133" lon="8.242795011028647">
        <ele>997.51000999999997</ele>
        <time>2015-03-28T08:34:01Z</time>
      </trkpt>
      <trkpt lat="46.02826002985239" lon="8.242843961343169">
        <ele>999.910034</ele>
        <time>2015-03-28T08:34:16Z</time>
      </trkpt>
      <trkpt lat="46.02828299626708" lon="8.242962984368205">
        <ele>1002.309998</ele>
        <time>2015-03-28T08:34:31Z</time>
      </trkpt>
      <trkpt lat="46.028274027630687" lon="8.243162976577878">
        <ele>1004.22998</ele>
        <time>2015-03-28T08:34:48Z</time>
      </trkpt>
      <trkpt lat="46.028300011530519" lon="8.243202036246657">
        <ele>1004.719971</ele>
        <time>2015-03-28T08:34:52Z</time>
      </trkpt>
      <trkpt lat="46.028375029563904" lon="8.24333899654448">
        <ele>1007.599976</ele>
        <time>2015-03-28T08:35:08Z</time>
      </trkpt>
      <trkpt lat="46.028448035940528" lon="8.243414014577866">
        <ele>1010.959961</ele>
        <time>2015-03-28T08:35:23Z</time>
      </trkpt>
      <trkpt lat="46.028488017618656" lon="8.243375960737467">
        <ele>1013.849976</ele>
        <time>2015-03-28T08:35:40Z</time>
      </trkpt>
      <trkpt lat="46.02849698625505" lon="8.24329499155283">
        <ele>1016.25</ele>
        <time>2015-03-28T08:35:52Z</time>
      </trkpt>
      <trkpt lat="46.02847795933485" lon="8.24318896047771">
        <ele>1018.169983</ele>
        <time>2015-03-28T08:36:08Z</time>
      </trkpt>
      <trkpt lat="46.02852095849812" lon="8.243178986012936">
        <ele>1020.580017</ele>
        <time>2015-03-28T08:36:25Z</time>
      </trkpt>
      <trkpt lat="46.028532022610307" lon="8.243116037920117">
        <ele>1022.980042</ele>
        <time>2015-03-28T08:36:38Z</time>
      </trkpt>
      <trkpt lat="46.028551971539855" lon="8.243085024878383">
        <ele>1025.380005</ele>
        <time>2015-03-28T08:36:50Z</time>
      </trkpt>
      <trkpt lat="46.028575021773577" lon="8.242985028773546">
        <ele>1028.75</ele>
        <time>2015-03-28T08:37:04Z</time>
      </trkpt>
      <trkpt lat="46.028564041480422" lon="8.242925014346838">
        <ele>1029.7100829999999</ele>
        <time>2015-03-28T08:37:12Z</time>
      </trkpt>
      <trkpt lat="46.028623972088099" lon="8.242761986330152">
        <ele>1033.0699460000001</ele>
        <time>2015-03-28T08:37:28Z</time>
      </trkpt>
      <trkpt lat="46.028688009828329" lon="8.242742959409952">
        <ele>1035.959961</ele>
        <time>2015-03-28T08:37:42Z</time>
      </trkpt>
      <trkpt lat="46.028684992343187" lon="8.24279903434217">
        <ele>1037.400024</ele>
        <time>2015-03-28T08:37:48Z</time>
      </trkpt>
      <trkpt lat="46.028740983456373" lon="8.242937000468373">
        <ele>1039.799927</ele>
        <time>2015-03-28T08:38:04Z</time>
      </trkpt>
      <trkpt lat="46.02877501398325" lon="8.24290900491178">
        <ele>1043.169922</ele>
        <time>2015-03-28T08:38:19Z</time>
      </trkpt>
      <trkpt lat="46.028794040903449" lon="8.242803979665041">
        <ele>1045.5699460000001</ele>
        <time>2015-03-28T08:38:34Z</time>
      </trkpt>
      <trkpt lat="46.028865035623312" lon="8.242876986041665">
        <ele>1047.969971</ele>
        <time>2015-03-28T08:38:46Z</time>
      </trkpt>
      <trkpt lat="46.028910968452692" lon="8.242904981598258">
        <ele>1050.8599850000001</ele>
        <time>2015-03-28T08:39:00Z</time>
      </trkpt>
      <trkpt lat="46.028975006192923" lon="8.24297103099525">
        <ele>1053.26001</ele>
        <time>2015-03-28T08:39:15Z</time>
      </trkpt>
      <trkpt lat="46.029024962335825" lon="8.242987962439656">
        <ele>1055.669922</ele>
        <time>2015-03-28T08:39:30Z</time>
      </trkpt>
      <trkpt lat="46.029039965942502" lon="8.242992991581559">
        <ele>1056.150024</ele>
        <time>2015-03-28T08:39:46Z</time>
      </trkpt>
      <trkpt lat="46.029109032824636" lon="8.243098016828299">
        <ele>1056.630005</ele>
        <time>2015-03-28T08:39:56Z</time>
      </trkpt>
      <trkpt lat="46.029214980080724" lon="8.24327596463263">
        <ele>1058.5500489999999</ele>
        <time>2015-03-28T08:40:13Z</time>
      </trkpt>
      <trkpt lat="46.029309025034308" lon="8.243349976837635">
        <ele>1061.910034</ele>
        <time>2015-03-28T08:40:28Z</time>
      </trkpt>
      <trkpt lat="46.029380019754171" lon="8.243391970172525">
        <ele>1065.280029</ele>
        <time>2015-03-28T08:40:44Z</time>
      </trkpt>
      <trkpt lat="46.029431987553835" lon="8.243461037054658">
        <ele>1067.6800539999999</ele>
        <time>2015-03-28T08:40:57Z</time>
      </trkpt>
      <trkpt lat="46.02948596701026" lon="8.243477968499064">
        <ele>1070.080078</ele>
        <time>2015-03-28T08:41:10Z</time>
      </trkpt>
      <trkpt lat="46.029466018080711" lon="8.243378978222609">
        <ele>1072.969971</ele>
        <time>2015-03-28T08:41:26Z</time>
      </trkpt>
      <trkpt lat="46.029458977282047" lon="8.24327202513814">
        <ele>1076.329956</ele>
        <time>2015-03-28T08:41:41Z</time>
      </trkpt>
      <trkpt lat="46.029527960345149" lon="8.243301026523113">
        <ele>1078.73999</ele>
        <time>2015-03-28T08:41:55Z</time>
      </trkpt>
      <trkpt lat="46.029531983658671" lon="8.243268001824617">
        <ele>1081.1400149999999</ele>
        <time>2015-03-28T08:42:08Z</time>
      </trkpt>
      <trkpt lat="46.029539024457335" lon="8.24318896047771">
        <ele>1084.5</ele>
        <time>2015-03-28T08:42:23Z</time>
      </trkpt>
      <trkpt lat="46.029554028064013" lon="8.243129029870033">
        <ele>1087.3900149999999</ele>
        <time>2015-03-28T08:42:39Z</time>
      </trkpt>
      <trkpt lat="46.029632985591888" lon="8.243119977414608">
        <ele>1089.790039</ele>
        <time>2015-03-28T08:42:52Z</time>
      </trkpt>
      <trkpt lat="46.029695011675358" lon="8.243150990456343">
        <ele>1093.160034</ele>
        <time>2015-03-28T08:43:07Z</time>
      </trkpt>
      <trkpt lat="46.029683025553823" lon="8.243077984079719">
        <ele>1096.0399170000001</ele>
        <time>2015-03-28T08:43:20Z</time>
      </trkpt>
      <trkpt lat="46.029659975320101" lon="8.243047976866365">
        <ele>1098.4399410000001</ele>
        <time>2015-03-28T08:43:33Z</time>
      </trkpt>
      <trkpt lat="46.029706997796893" lon="8.243001038208604">
        <ele>1100.849976</ele>
        <time>2015-03-28T08:43:46Z</time>
      </trkpt>
      <trkpt lat="46.029676990583539" lon="8.242978993803263">
        <ele>1103.25</ele>
        <time>2015-03-28T08:43:59Z</time>
      </trkpt>
      <trkpt lat="46.029619993641973" lon="8.242966001853347">
        <ele>1106.130005</ele>
        <time>2015-03-28T08:44:15Z</time>
      </trkpt>
      <trkpt lat="46.02955000475049" lon="8.242857037112117">
        <ele>1108.059937</ele>
        <time>2015-03-28T08:44:29Z</time>
      </trkpt>
      <trkpt lat="46.029533995315433" lon="8.242820994928479">
        <ele>1108.5399170000001</ele>
        <time>2015-03-28T08:44:32Z</time>
      </trkpt>
      <trkpt lat="46.029472975060344" lon="8.242510026320815">
        <ele>1110.9399410000001</ele>
        <time>2015-03-28T08:44:53Z</time>
      </trkpt>
      <trkpt lat="46.029450008645654" lon="8.242427967488766">
        <ele>1111.900024</ele>
        <time>2015-03-28T08:45:00Z</time>
      </trkpt>
      <trkpt lat="46.029446991160512" lon="8.242257982492447">
        <ele>1114.790039</ele>
        <time>2015-03-28T08:45:16Z</time>
      </trkpt>
      <trkpt lat="46.029465012252331" lon="8.242230992764235">
        <ele>1115.2700199999999</ele>
        <time>2015-03-28T08:45:19Z</time>
      </trkpt>
      <trkpt lat="46.029522009193897" lon="8.241935027763248">
        <ele>1119.1099850000001</ele>
        <time>2015-03-28T08:45:41Z</time>
      </trkpt>
      <trkpt lat="46.029583029448986" lon="8.241846011951566">
        <ele>1121.5200199999999</ele>
        <time>2015-03-28T08:45:57Z</time>
      </trkpt>
      <trkpt lat="46.029604990035295" lon="8.241755990311503">
        <ele>1123.920044</ele>
        <time>2015-03-28T08:46:09Z</time>
      </trkpt>
      <trkpt lat="46.029638014733791" lon="8.241668986156583">
        <ele>1126.799927</ele>
        <time>2015-03-28T08:46:23Z</time>
      </trkpt>
      <trkpt lat="46.029671039432287" lon="8.241637973114848">
        <ele>1128.23999</ele>
        <time>2015-03-28T08:46:38Z</time>
      </trkpt>
      <trkpt lat="46.029728036373854" lon="8.241650965064764">
        <ele>1131.130005</ele>
        <time>2015-03-28T08:46:51Z</time>
      </trkpt>
      <trkpt lat="46.029802970588207" lon="8.241761019453406">
        <ele>1133.530029</ele>
        <time>2015-03-28T08:47:04Z</time>
      </trkpt>
      <trkpt lat="46.029815962538123" lon="8.241688013076782">
        <ele>1135.9399410000001</ele>
        <time>2015-03-28T08:47:17Z</time>
      </trkpt>
      <trkpt lat="46.029866002500057" lon="8.241559015586972">
        <ele>1138.339966</ele>
        <time>2015-03-28T08:47:34Z</time>
      </trkpt>
      <trkpt lat="46.02987002581358" lon="8.241520961746573">
        <ele>1139.299927</ele>
        <time>2015-03-28T08:47:51Z</time>
      </trkpt>
      <trkpt lat="46.02989299222827" lon="8.241492966189981">
        <ele>1138.820068</ele>
        <time>2015-03-28T08:48:01Z</time>
      </trkpt>
      <trkpt lat="46.030078986659646" lon="8.241371009498835">
        <ele>1136.420044</ele>
        <time>2015-03-28T08:48:24Z</time>
      </trkpt>
      <trkpt lat="46.030080998316407" lon="8.241319041699171">
        <ele>1135.450073</ele>
        <time>2015-03-28T08:48:44Z</time>
      </trkpt>
      <trkpt lat="46.030175965279341" lon="8.241277970373631">
        <ele>1134.01001</ele>
        <time>2015-03-28T08:48:58Z</time>
      </trkpt>
      <trkpt lat="46.030197003856301" lon="8.241273025050759">
        <ele>1133.530029</ele>
        <time>2015-03-28T08:49:00Z</time>
      </trkpt>
      <trkpt lat="46.030404958873987" lon="8.241195995360613">
        <ele>1132.089966</ele>
        <time>2015-03-28T08:49:26Z</time>
      </trkpt>
      <trkpt lat="46.030476959422231" lon="8.241198007017374">
        <ele>1130.650024</ele>
        <time>2015-03-28T08:49:43Z</time>
      </trkpt>
      <trkpt lat="46.030544014647603" lon="8.241172023117542">
        <ele>1130.169922</ele>
        <time>2015-03-28T08:49:50Z</time>
      </trkpt>
      <trkpt lat="46.030671000480652" lon="8.241103040054441">
        <ele>1130.169922</ele>
        <time>2015-03-28T08:50:08Z</time>
      </trkpt>
      <trkpt lat="46.030745012685657" lon="8.241042019799352">
        <ele>1129.690063</ele>
        <time>2015-03-28T08:50:17Z</time>
      </trkpt>
      <trkpt lat="46.030931007117033" lon="8.240908998996019">
        <ele>1129.690063</ele>
        <time>2015-03-28T08:50:38Z</time>
      </trkpt>
      <trkpt lat="46.03107500821352" lon="8.240804979577661">
        <ele>1129.690063</ele>
        <time>2015-03-28T08:50:56Z</time>
      </trkpt>
      <trkpt lat="46.031206017360091" lon="8.240670030936599">
        <ele>1126.799927</ele>
        <time>2015-03-28T08:51:18Z</time>
      </trkpt>
      <trkpt lat="46.031253039836884" lon="8.240630971267819">
        <ele>1126.799927</ele>
        <time>2015-03-28T08:51:23Z</time>
      </trkpt>
      <trkpt lat="46.031401986256242" lon="8.240428967401385">
        <ele>1128.7299800000001</ele>
        <time>2015-03-28T08:51:45Z</time>
      </trkpt>
      <trkpt lat="46.031428975984454" lon="8.240406000986695">
        <ele>1129.2100829999999</ele>
        <time>2015-03-28T08:51:52Z</time>
      </trkpt>
      <trkpt lat="46.031454959884286" lon="8.240369036793709">
        <ele>1129.690063</ele>
        <time>2015-03-28T08:51:55Z</time>
      </trkpt>
      <trkpt lat="46.031631985679269" lon="8.240107018500567">
        <ele>1131.130005</ele>
        <time>2015-03-28T08:52:21Z</time>
      </trkpt>
      <trkpt lat="46.031645983457565" lon="8.240074999630451">
        <ele>1131.6099850000001</ele>
        <time>2015-03-28T08:52:26Z</time>
      </trkpt>
      <trkpt lat="46.031658975407481" lon="8.239991012960672">
        <ele>1133.0500489999999</ele>
        <time>2015-03-28T08:52:44Z</time>
      </trkpt>
      <trkpt lat="46.031674984842539" lon="8.239962011575699">
        <ele>1133.0500489999999</ele>
        <time>2015-03-28T08:53:17Z</time>
      </trkpt>
      <trkpt lat="46.031667022034526" lon="8.239936027675867">
        <ele>1133.530029</ele>
        <time>2015-03-28T08:54:25Z</time>
      </trkpt>
      <trkpt lat="46.031712032854557" lon="8.239682978019118">
        <ele>1134.48999</ele>
        <time>2015-03-28T08:54:42Z</time>
      </trkpt>
      <trkpt lat="46.031738016754389" lon="8.239549035206437">
        <ele>1135.450073</ele>
        <time>2015-03-28T08:54:51Z</time>
      </trkpt>
      <trkpt lat="46.03178596124053" lon="8.23947099968791">
        <ele>1136.420044</ele>
        <time>2015-03-28T08:54:58Z</time>
      </trkpt>
      <trkpt lat="46.031815968453884" lon="8.239398999139667">
        <ele>1136.900024</ele>
        <time>2015-03-28T08:55:23Z</time>
      </trkpt>
      <trkpt lat="46.03186902590096" lon="8.239286011084914">
        <ele>1139.299927</ele>
        <time>2015-03-28T08:55:47Z</time>
      </trkpt>
      <trkpt lat="46.031884029507637" lon="8.23917000554502">
        <ele>1142.660034</ele>
        <time>2015-03-28T08:56:02Z</time>
      </trkpt>
      <trkpt lat="46.031946977600455" lon="8.239073026925325">
        <ele>1145.5500489999999</ele>
        <time>2015-03-28T08:56:19Z</time>
      </trkpt>
      <trkpt lat="46.032028030604124" lon="8.238917961716652">
        <ele>1148.9099120000001</ele>
        <time>2015-03-28T08:56:37Z</time>
      </trkpt>
      <trkpt lat="46.03204102255404" lon="8.238777983933687">
        <ele>1152.280029</ele>
        <time>2015-03-28T08:56:54Z</time>
      </trkpt>
      <trkpt lat="46.032091984525323" lon="8.23871604166925">
        <ele>1155.160034</ele>
        <time>2015-03-28T08:57:10Z</time>
      </trkpt>
      <trkpt lat="46.032106988132" lon="8.238638006150723">
        <ele>1157.5600589999999</ele>
        <time>2015-03-28T08:57:26Z</time>
      </trkpt>
      <trkpt lat="46.032142024487257" lon="8.23856701143086">
        <ele>1159.01001</ele>
        <time>2015-03-28T08:57:43Z</time>
      </trkpt>
      <trkpt lat="46.032263981178403" lon="8.238537004217506">
        <ele>1161.8900149999999</ele>
        <time>2015-03-28T08:58:26Z</time>
      </trkpt>
      <trkpt lat="46.032311003655195" lon="8.238531975075603">
        <ele>1162.369995</ele>
        <time>2015-03-28T08:58:35Z</time>
      </trkpt>
      <trkpt lat="46.032412005588412" lon="8.238520994782448">
        <ele>1162.849976</ele>
        <time>2015-03-28T08:58:46Z</time>
      </trkpt>
      <trkpt lat="46.032613003626466" lon="8.238369030877948">
        <ele>1164.7700199999999</ele>
        <time>2015-03-28T08:59:08Z</time>
      </trkpt>
      <trkpt lat="46.032744012773037" lon="8.238235004246235">
        <ele>1167.660034</ele>
        <time>2015-03-28T08:59:26Z</time>
      </trkpt>
      <trkpt lat="46.032796986401081" lon="8.238126961514354">
        <ele>1170.5399170000001</ele>
        <time>2015-03-28T08:59:41Z</time>
      </trkpt>
      <trkpt lat="46.032872004434466" lon="8.23813802562654">
        <ele>1172.469971</ele>
        <time>2015-03-28T08:59:52Z</time>
      </trkpt>
      <trkpt lat="46.032891031354666" lon="8.238110030069947">
        <ele>1173.4300539999999</ele>
        <time>2015-03-28T09:00:07Z</time>
      </trkpt>
      <trkpt lat="46.032909974455833" lon="8.238075999543071">
        <ele>1174.869995</ele>
        <time>2015-03-28T09:00:25Z</time>
      </trkpt>
      <trkpt lat="46.032861024141312" lon="8.237947002053261">
        <ele>1176.309937</ele>
        <time>2015-03-28T09:00:41Z</time>
      </trkpt>
      <trkpt lat="46.032857000827789" lon="8.237865027040243">
        <ele>1178.2299800000001</ele>
        <time>2015-03-28T09:00:57Z</time>
      </trkpt>
      <trkpt lat="46.032839985564351" lon="8.23775296099484">
        <ele>1179.670044</ele>
        <time>2015-03-28T09:01:11Z</time>
      </trkpt>
      <trkpt lat="46.032846020534635" lon="8.237611977383494">
        <ele>1182.5600589999999</ele>
        <time>2015-03-28T09:01:25Z</time>
      </trkpt>
      <trkpt lat="46.032836968079209" lon="8.237562021240592">
        <ele>1183.0399170000001</ele>
        <time>2015-03-28T09:01:30Z</time>
      </trkpt>
      <trkpt lat="46.032768990844488" lon="8.237384995445609">
        <ele>1184.4799800000001</ele>
        <time>2015-03-28T09:01:47Z</time>
      </trkpt>
      <trkpt lat="46.032689027488232" lon="8.237197995185852">
        <ele>1186.880005</ele>
        <time>2015-03-28T09:02:05Z</time>
      </trkpt>
      <trkpt lat="46.032714005559683" lon="8.236887026578188">
        <ele>1187.369995</ele>
        <time>2015-03-28T09:02:26Z</time>
      </trkpt>
      <trkpt lat="46.032785000279546" lon="8.236610004678369">
        <ele>1188.329956</ele>
        <time>2015-03-28T09:02:47Z</time>
      </trkpt>
      <trkpt lat="46.032757004722953" lon="8.236482013016939">
        <ele>1187.849976</ele>
        <time>2015-03-28T09:02:58Z</time>
      </trkpt>
      <trkpt lat="46.032801009714603" lon="8.236322002485395">
        <ele>1186.880005</ele>
        <time>2015-03-28T09:03:15Z</time>
      </trkpt>
      <trkpt lat="46.032877033576369" lon="8.236170038580895">
        <ele>1186.400024</ele>
        <time>2015-03-28T09:03:28Z</time>
      </trkpt>
      <trkpt lat="46.032932018861175" lon="8.23603400029242">
        <ele>1189.7700199999999</ele>
        <time>2015-03-28T09:03:42Z</time>
      </trkpt>
      <trkpt lat="46.032953979447484" lon="8.235877007246018">
        <ele>1192.170044</ele>
        <time>2015-03-28T09:03:57Z</time>
      </trkpt>
      <trkpt lat="46.032940987497568" lon="8.23579603806138">
        <ele>1194.580078</ele>
        <time>2015-03-28T09:04:13Z</time>
      </trkpt>
      <trkpt lat="46.032912991940975" lon="8.235747003927827">
        <ele>1195.0600589999999</ele>
        <time>2015-03-28T09:04:44Z</time>
      </trkpt>
      <trkpt lat="46.032952973619103" lon="8.235657988116145">
        <ele>1197.9399410000001</ele>
        <time>2015-03-28T09:04:59Z</time>
      </trkpt>
      <trkpt lat="46.032974012196064" lon="8.235591016709805">
        <ele>1200.339966</ele>
        <time>2015-03-28T09:05:15Z</time>
      </trkpt>
      <trkpt lat="46.033027991652489" lon="8.235470987856388">
        <ele>1203.2299800000001</ele>
        <time>2015-03-28T09:05:31Z</time>
      </trkpt>
      <trkpt lat="46.033079037442803" lon="8.235409967601299">
        <ele>1205.630005</ele>
        <time>2015-03-28T09:05:44Z</time>
      </trkpt>
      <trkpt lat="46.033155983313918" lon="8.235326986759901">
        <ele>1209</ele>
        <time>2015-03-28T09:06:01Z</time>
      </trkpt>
      <trkpt lat="46.033212980255485" lon="8.235256997868419">
        <ele>1212.3599850000001</ele>
        <time>2015-03-28T09:06:18Z</time>
      </trkpt>
      <trkpt lat="46.033264026045799" lon="8.235174017027021">
        <ele>1214.76001</ele>
        <time>2015-03-28T09:06:33Z</time>
      </trkpt>
      <trkpt lat="46.033299984410405" lon="8.235088018700481">
        <ele>1217.650024</ele>
        <time>2015-03-28T09:06:51Z</time>
      </trkpt>
      <trkpt lat="46.033326974138618" lon="8.235019035637379">
        <ele>1220.530029</ele>
        <time>2015-03-28T09:07:08Z</time>
      </trkpt>
      <trkpt lat="46.03335496969521" lon="8.234904035925865">
        <ele>1223.900024</ele>
        <time>2015-03-28T09:07:24Z</time>
      </trkpt>
      <trkpt lat="46.033405009657145" lon="8.234839998185635">
        <ele>1226.3000489999999</ele>
        <time>2015-03-28T09:07:37Z</time>
      </trkpt>
      <trkpt lat="46.033453037962317" lon="8.234795993193984">
        <ele>1229.179932</ele>
        <time>2015-03-28T09:07:50Z</time>
      </trkpt>
      <trkpt lat="46.033491007983685" lon="8.234761040657759">
        <ele>1231.589966</ele>
        <time>2015-03-28T09:08:06Z</time>
      </trkpt>
      <trkpt lat="46.033521015197039" lon="8.234688034281135">
        <ele>1234.469971</ele>
        <time>2015-03-28T09:08:22Z</time>
      </trkpt>
      <trkpt lat="46.033519003540277" lon="8.234604969620705">
        <ele>1236.869995</ele>
        <time>2015-03-28T09:08:39Z</time>
      </trkpt>
      <trkpt lat="46.033542975783348" lon="8.234484018757939">
        <ele>1238.8000489999999</ele>
        <time>2015-03-28T09:08:58Z</time>
      </trkpt>
      <trkpt lat="46.033578012138605" lon="8.234331971034408">
        <ele>1240.719971</ele>
        <time>2015-03-28T09:09:17Z</time>
      </trkpt>
      <trkpt lat="46.03361003100872" lon="8.234218982979655">
        <ele>1241.679932</ele>
        <time>2015-03-28T09:09:32Z</time>
      </trkpt>
      <trkpt lat="46.033693011850119" lon="8.234051009640098">
        <ele>1243.599976</ele>
        <time>2015-03-28T09:09:51Z</time>
      </trkpt>
      <trkpt lat="46.033737016841769" lon="8.233809024095535">
        <ele>1245.530029</ele>
        <time>2015-03-28T09:10:09Z</time>
      </trkpt>
      <trkpt lat="46.033776998519897" lon="8.233534013852477">
        <ele>1248.410034</ele>
        <time>2015-03-28T09:10:31Z</time>
      </trkpt>
      <trkpt lat="46.033797031268477" lon="8.233374003320932">
        <ele>1251.290039</ele>
        <time>2015-03-28T09:10:46Z</time>
      </trkpt>
      <trkpt lat="46.03376199491322" lon="8.233225978910923">
        <ele>1254.6599120000001</ele>
        <time>2015-03-28T09:11:06Z</time>
      </trkpt>
      <trkpt lat="46.033769035711884" lon="8.233198989182711">
        <ele>1257.059937</ele>
        <time>2015-03-28T09:11:34Z</time>
      </trkpt>
      <trkpt lat="46.033744979649782" lon="8.233091030269861">
        <ele>1259.940063</ele>
        <time>2015-03-28T09:11:49Z</time>
      </trkpt>
      <trkpt lat="46.033744979649782" lon="8.233008971437812">
        <ele>1261.8701169999999</ele>
        <time>2015-03-28T09:12:03Z</time>
      </trkpt>
      <trkpt lat="46.03371899574995" lon="8.232889026403427">
        <ele>1265.2299800000001</ele>
        <time>2015-03-28T09:12:19Z</time>
      </trkpt>
      <trkpt lat="46.033735005185008" lon="8.232799004763365">
        <ele>1268.6000979999999</ele>
        <time>2015-03-28T09:12:35Z</time>
      </trkpt>
      <trkpt lat="46.033784039318562" lon="8.232719041407108">
        <ele>1271.4801030000001</ele>
        <time>2015-03-28T09:12:52Z</time>
      </trkpt>
      <trkpt lat="46.033826032653451" lon="8.23270495980978">
        <ele>1273.880005</ele>
        <time>2015-03-28T09:13:07Z</time>
      </trkpt>
      <trkpt lat="46.033909013494849" lon="8.232685010880232">
        <ele>1276.7700199999999</ele>
        <time>2015-03-28T09:13:25Z</time>
      </trkpt>
      <trkpt lat="46.033936003223062" lon="8.232609992846847">
        <ele>1279.170044</ele>
        <time>2015-03-28T09:13:39Z</time>
      </trkpt>
      <trkpt lat="46.03393298573792" lon="8.232546960934997">
        <ele>1281.5699460000001</ele>
        <time>2015-03-28T09:13:54Z</time>
      </trkpt>
      <trkpt lat="46.033952012658119" lon="8.232417041435838">
        <ele>1283.9799800000001</ele>
        <time>2015-03-28T09:14:11Z</time>
      </trkpt>
      <trkpt lat="46.033948995172977" lon="8.232412012293935">
        <ele>1283.9799800000001</ele>
        <time>2015-03-28T09:14:12Z</time>
      </trkpt>
      <trkpt lat="46.033900966867805" lon="8.232298018410802">
        <ele>1286.380005</ele>
        <time>2015-03-28T09:14:29Z</time>
      </trkpt>
      <trkpt lat="46.033897027373314" lon="8.232173966243863">
        <ele>1289.75</ele>
        <time>2015-03-28T09:14:46Z</time>
      </trkpt>
      <trkpt lat="46.033922005444765" lon="8.232070030644536">
        <ele>1292.630005</ele>
        <time>2015-03-28T09:15:03Z</time>
      </trkpt>
      <trkpt lat="46.033969027921557" lon="8.231982020661235">
        <ele>1295.51001</ele>
        <time>2015-03-28T09:15:20Z</time>
      </trkpt>
      <trkpt lat="46.034006997942924" lon="8.231900967657566">
        <ele>1298.880005</ele>
        <time>2015-03-28T09:15:37Z</time>
      </trkpt>
      <trkpt lat="46.034033987671137" lon="8.231789991259575">
        <ele>1301.76001</ele>
        <time>2015-03-28T09:15:55Z</time>
      </trkpt>
      <trkpt lat="46.034054020419717" lon="8.231674991548061">
        <ele>1304.650024</ele>
        <time>2015-03-28T09:16:17Z</time>
      </trkpt>
      <trkpt lat="46.034087967127562" lon="8.231615982949734">
        <ele>1306.5699460000001</ele>
        <time>2015-03-28T09:16:43Z</time>
      </trkpt>
      <trkpt lat="46.034158961847425" lon="8.23156300932169">
        <ele>1308.48999</ele>
        <time>2015-03-28T09:17:01Z</time>
      </trkpt>
      <trkpt lat="46.034187963232398" lon="8.231515986844897">
        <ele>1310.410034</ele>
        <time>2015-03-28T09:17:26Z</time>
      </trkpt>
      <trkpt lat="46.03423498570919" lon="8.231405010446906">
        <ele>1313.3000489999999</ele>
        <time>2015-03-28T09:17:41Z</time>
      </trkpt>
      <trkpt lat="46.034275973215699" lon="8.231342984363437">
        <ele>1316.179932</ele>
        <time>2015-03-28T09:17:55Z</time>
      </trkpt>
      <trkpt lat="46.034279996529222" lon="8.231303002685309">
        <ele>1319.5500489999999</ele>
        <time>2015-03-28T09:18:11Z</time>
      </trkpt>
      <trkpt lat="46.034312015399337" lon="8.23122002184391">
        <ele>1321.4700929999999</ele>
        <time>2015-03-28T09:18:27Z</time>
      </trkpt>
      <trkpt lat="46.034329030662775" lon="8.231159001588821">
        <ele>1324.830078</ele>
        <time>2015-03-28T09:18:45Z</time>
      </trkpt>
      <trkpt lat="46.034318972378969" lon="8.231104016304016">
        <ele>1327.719971</ele>
        <time>2015-03-28T09:19:01Z</time>
      </trkpt>
      <trkpt lat="46.034344034269452" lon="8.231057999655604">
        <ele>1330.119995</ele>
        <time>2015-03-28T09:19:14Z</time>
      </trkpt>
      <trkpt lat="46.034372029826045" lon="8.23096102103591">
        <ele>1333.48999</ele>
        <time>2015-03-28T09:19:31Z</time>
      </trkpt>
      <trkpt lat="46.034359959885478" lon="8.230935037136078">
        <ele>1334.929932</ele>
        <time>2015-03-28T09:19:43Z</time>
      </trkpt>
      <trkpt lat="46.034401031211019" lon="8.230886003002524">
        <ele>1337.329956</ele>
        <time>2015-03-28T09:19:57Z</time>
      </trkpt>
      <trkpt lat="46.034419974312186" lon="8.230839986354113">
        <ele>1339.7299800000001</ele>
        <time>2015-03-28T09:20:09Z</time>
      </trkpt>
      <trkpt lat="46.034450987353921" lon="8.23076999746263">
        <ele>1342.619995</ele>
        <time>2015-03-28T09:20:26Z</time>
      </trkpt>
      <trkpt lat="46.034476971253753" lon="8.23070302605629">
        <ele>1345.0200199999999</ele>
        <time>2015-03-28T09:20:40Z</time>
      </trkpt>
      <trkpt lat="46.034497004002333" lon="8.230634965002537">
        <ele>1347.910034</ele>
        <time>2015-03-28T09:20:55Z</time>
      </trkpt>
      <trkpt lat="46.034530028700829" lon="8.230584003031254">
        <ele>1350.7899170000001</ele>
        <time>2015-03-28T09:21:13Z</time>
      </trkpt>
      <trkpt lat="46.034536985680461" lon="8.230548966675997">
        <ele>1352.709961</ele>
        <time>2015-03-28T09:21:34Z</time>
      </trkpt>
      <trkpt lat="46.034575961530209" lon="8.230504039674997">
        <ele>1355.599976</ele>
        <time>2015-03-28T09:21:50Z</time>
      </trkpt>
      <trkpt lat="46.034616027027369" lon="8.230444025248289">
        <ele>1358.4801030000001</ele>
        <time>2015-03-28T09:22:07Z</time>
      </trkpt>
      <trkpt lat="46.034614015370607" lon="8.230458023026586">
        <ele>1359.919922</ele>
        <time>2015-03-28T09:22:32Z</time>
      </trkpt>
      <trkpt lat="46.034637987613678" lon="8.230351991951466">
        <ele>1362.8100589999999</ele>
        <time>2015-03-28T09:22:47Z</time>
      </trkpt>
      <trkpt lat="46.034646034240723" lon="8.230308992788196">
        <ele>1364.25</ele>
        <time>2015-03-28T09:22:55Z</time>
      </trkpt>
      <trkpt lat="46.034680986776948" lon="8.230226011946797">
        <ele>1366.650024</ele>
        <time>2015-03-28T09:23:09Z</time>
      </trkpt>
      <trkpt lat="46.034709988161922" lon="8.230139007791877">
        <ele>1370.0200199999999</ele>
        <time>2015-03-28T09:23:27Z</time>
      </trkpt>
      <trkpt lat="46.034733038395643" lon="8.230044962838292">
        <ele>1371.940063</ele>
        <time>2015-03-28T09:23:41Z</time>
      </trkpt>
      <trkpt lat="46.034760028123856" lon="8.229983020573854">
        <ele>1374.820068</ele>
        <time>2015-03-28T09:23:56Z</time>
      </trkpt>
      <trkpt lat="46.034791963174939" lon="8.229911020025611">
        <ele>1377.2299800000001</ele>
        <time>2015-03-28T09:24:14Z</time>
      </trkpt>
      <trkpt lat="46.034777965396643" lon="8.229822004213929">
        <ele>1379.630005</ele>
        <time>2015-03-28T09:24:33Z</time>
      </trkpt>
      <trkpt lat="46.034794980660081" lon="8.22976098395884">
        <ele>1382.51001</ele>
        <time>2015-03-28T09:24:49Z</time>
      </trkpt>
      <trkpt lat="46.034838985651731" lon="8.229767018929124">
        <ele>1384.4399410000001</ele>
        <time>2015-03-28T09:25:01Z</time>
      </trkpt>
      <trkpt lat="46.03485700674355" lon="8.229705998674035">
        <ele>1387.3199460000001</ele>
        <time>2015-03-28T09:25:17Z</time>
      </trkpt>
      <trkpt lat="46.034873016178608" lon="8.229660987854004">
        <ele>1389.719971</ele>
        <time>2015-03-28T09:25:31Z</time>
      </trkpt>
      <trkpt lat="46.034901011735201" lon="8.229654030874372">
        <ele>1392.130005</ele>
        <time>2015-03-28T09:25:44Z</time>
      </trkpt>
      <trkpt lat="46.034931018948555" lon="8.229628968983889">
        <ele>1395.01001</ele>
        <time>2015-03-28T09:26:01Z</time>
      </trkpt>
      <trkpt lat="46.034968988969922" lon="8.229604996740818">
        <ele>1397.8900149999999</ele>
        <time>2015-03-28T09:26:25Z</time>
      </trkpt>
      <trkpt lat="46.035011988133192" lon="8.229546993970871">
        <ele>1401.26001</ele>
        <time>2015-03-28T09:26:43Z</time>
      </trkpt>
      <trkpt lat="46.035021040588617" lon="8.229528972879052">
        <ele>1403.179932</ele>
        <time>2015-03-28T09:26:55Z</time>
      </trkpt>
      <trkpt lat="46.035001007840037" lon="8.229466024786234">
        <ele>1406.5500489999999</ele>
        <time>2015-03-28T09:27:21Z</time>
      </trkpt>
      <trkpt lat="46.035033026710153" lon="8.229408022016287">
        <ele>1408.950073</ele>
        <time>2015-03-28T09:27:34Z</time>
      </trkpt>
      <trkpt lat="46.03505096398294" lon="8.229386983439326">
        <ele>1411.3500979999999</ele>
        <time>2015-03-28T09:27:56Z</time>
      </trkpt>
      <trkpt lat="46.035082982853055" lon="8.229382038116455">
        <ele>1413.76001</ele>
        <time>2015-03-28T09:28:12Z</time>
      </trkpt>
      <trkpt lat="46.035090023651719" lon="8.229365022853017">
        <ele>1414.23999</ele>
        <time>2015-03-28T09:28:30Z</time>
      </trkpt>
      <trkpt lat="46.035105027258396" lon="8.229298973456025">
        <ele>1416.6400149999999</ele>
        <time>2015-03-28T09:28:46Z</time>
      </trkpt>
      <trkpt lat="46.035117013379931" lon="8.229255974292755">
        <ele>1419.5200199999999</ele>
        <time>2015-03-28T09:29:04Z</time>
      </trkpt>
      <trkpt lat="46.035160012543201" lon="8.229226972907782">
        <ele>1422.8900149999999</ele>
        <time>2015-03-28T09:29:19Z</time>
      </trkpt>
      <trkpt lat="46.0352239664644" lon="8.229180034250021">
        <ele>1425.7700199999999</ele>
        <time>2015-03-28T09:29:42Z</time>
      </trkpt>
      <trkpt lat="46.035245005041361" lon="8.22911599650979">
        <ele>1429.139893</ele>
        <time>2015-03-28T09:30:18Z</time>
      </trkpt>
      <trkpt lat="46.035248022526503" lon="8.229099987074733">
        <ele>1429.139893</ele>
        <time>2015-03-28T09:30:20Z</time>
      </trkpt>
      <trkpt lat="46.035269983112812" lon="8.229047013446689">
        <ele>1432.5</ele>
        <time>2015-03-28T09:30:37Z</time>
      </trkpt>
      <trkpt lat="46.035278029739857" lon="8.229003008455038">
        <ele>1433.9399410000001</ele>
        <time>2015-03-28T09:30:49Z</time>
      </trkpt>
      <trkpt lat="46.035293033346534" lon="8.228954980149865">
        <ele>1435.3900149999999</ele>
        <time>2015-03-28T09:31:05Z</time>
      </trkpt>
      <trkpt lat="46.035303007811308" lon="8.228869987651706">
        <ele>1436.830078</ele>
        <time>2015-03-28T09:31:18Z</time>
      </trkpt>
      <trkpt lat="46.035320023074746" lon="8.228767979890108">
        <ele>1439.709961</ele>
        <time>2015-03-28T09:31:40Z</time>
      </trkpt>
      <trkpt lat="46.03535195812583" lon="8.228703020140529">
        <ele>1441.630005</ele>
        <time>2015-03-28T09:31:53Z</time>
      </trkpt>
      <trkpt lat="46.035351036116481" lon="8.228689022362232">
        <ele>1443.5600589999999</ele>
        <time>2015-03-28T09:32:11Z</time>
      </trkpt>
      <trkpt lat="46.035377020016313" lon="8.228591959923506">
        <ele>1445.9600829999999</ele>
        <time>2015-03-28T09:32:33Z</time>
      </trkpt>
      <trkpt lat="46.035401998087764" lon="8.22853596881032">
        <ele>1447.8801269999999</ele>
        <time>2015-03-28T09:32:45Z</time>
      </trkpt>
      <trkpt lat="46.035412978380919" lon="8.228494981303811">
        <ele>1451.25</ele>
        <time>2015-03-28T09:33:02Z</time>
      </trkpt>
      <trkpt lat="46.035447008907795" lon="8.22844703681767">
        <ele>1453.170044</ele>
        <time>2015-03-28T09:33:15Z</time>
      </trkpt>
      <trkpt lat="46.035473998636007" lon="8.228386016562581">
        <ele>1456.0500489999999</ele>
        <time>2015-03-28T09:33:37Z</time>
      </trkpt>
      <trkpt lat="46.035511968657374" lon="8.228336982429028">
        <ele>1458.459961</ele>
        <time>2015-03-28T09:33:49Z</time>
      </trkpt>
      <trkpt lat="46.035523032769561" lon="8.228291971608996">
        <ele>1460.380005</ele>
        <time>2015-03-28T09:34:02Z</time>
      </trkpt>
      <trkpt lat="46.035545999184251" lon="8.228289959952235">
        <ele>1462.3000489999999</ele>
        <time>2015-03-28T09:34:14Z</time>
      </trkpt>
      <trkpt lat="46.035567037761211" lon="8.228247966617346">
        <ele>1465.1899410000001</ele>
        <time>2015-03-28T09:34:31Z</time>
      </trkpt>
      <trkpt lat="46.035610036924481" lon="8.228231035172939">
        <ele>1467.1099850000001</ele>
        <time>2015-03-28T09:34:46Z</time>
      </trkpt>
      <trkpt lat="46.035621017217636" lon="8.228146964684129">
        <ele>1469.51001</ele>
        <time>2015-03-28T09:34:59Z</time>
      </trkpt>
      <trkpt lat="46.035655969753861" lon="8.228113017976284">
        <ele>1472.3999020000001</ele>
        <time>2015-03-28T09:35:14Z</time>
      </trkpt>
      <trkpt lat="46.03569301776588" lon="8.228035988286138">
        <ele>1475.280029</ele>
        <time>2015-03-28T09:35:32Z</time>
      </trkpt>
      <trkpt lat="46.035754960030317" lon="8.228011010214686">
        <ele>1478.160034</ele>
        <time>2015-03-28T09:35:51Z</time>
      </trkpt>
      <trkpt lat="46.035789996385574" lon="8.22797697968781">
        <ele>1480.570068</ele>
        <time>2015-03-28T09:36:06Z</time>
      </trkpt>
      <trkpt lat="46.03577901609242" lon="8.227852005511522">
        <ele>1482.009888</ele>
        <time>2015-03-28T09:36:24Z</time>
      </trkpt>
      <trkpt lat="46.035807011649013" lon="8.227833984419704">
        <ele>1484.8900149999999</ele>
        <time>2015-03-28T09:36:41Z</time>
      </trkpt>
      <trkpt lat="46.035834001377225" lon="8.227864997461438">
        <ele>1487.3000489999999</ele>
        <time>2015-03-28T09:36:56Z</time>
      </trkpt>
      <trkpt lat="46.035854034125805" lon="8.227830966934562">
        <ele>1488.73999</ele>
        <time>2015-03-28T09:37:16Z</time>
      </trkpt>
      <trkpt lat="46.035881023854017" lon="8.227748991921544">
        <ele>1490.1800539999999</ele>
        <time>2015-03-28T09:37:38Z</time>
      </trkpt>
      <trkpt lat="46.035911031067371" lon="8.227654024958611">
        <ele>1493.059937</ele>
        <time>2015-03-28T09:37:55Z</time>
      </trkpt>
      <trkpt lat="46.035923017188907" lon="8.227605996653438">
        <ele>1494.51001</ele>
        <time>2015-03-28T09:38:15Z</time>
      </trkpt>
      <trkpt lat="46.035945983603597" lon="8.227614965289831">
        <ele>1496.4300539999999</ele>
        <time>2015-03-28T09:38:33Z</time>
      </trkpt>
      <trkpt lat="46.036000968888402" lon="8.227625023573637">
        <ele>1498.830078</ele>
        <time>2015-03-28T09:38:49Z</time>
      </trkpt>
      <trkpt lat="46.036048997193575" lon="8.227569032460451">
        <ele>1501.23999</ele>
        <time>2015-03-28T09:39:05Z</time>
      </trkpt>
      <trkpt lat="46.036062994971871" lon="8.227527039125562">
        <ele>1502.6800539999999</ele>
        <time>2015-03-28T09:39:21Z</time>
      </trkpt>
      <trkpt lat="46.036090990528464" lon="8.227439029142261">
        <ele>1504.599976</ele>
        <time>2015-03-28T09:39:36Z</time>
      </trkpt>
      <trkpt lat="46.036094008013606" lon="8.227423019707203">
        <ele>1504.599976</ele>
        <time>2015-03-28T09:39:37Z</time>
      </trkpt>
      <trkpt lat="46.036134995520115" lon="8.227300979197025">
        <ele>1507</ele>
        <time>2015-03-28T09:39:52Z</time>
      </trkpt>
      <trkpt lat="46.036191992461681" lon="8.227139040827751">
        <ele>1509.8900149999999</ele>
        <time>2015-03-28T09:40:11Z</time>
      </trkpt>
      <trkpt lat="46.036243960261345" lon="8.227017000317574">
        <ele>1512.7700199999999</ele>
        <time>2015-03-28T09:40:29Z</time>
      </trkpt>
      <trkpt lat="46.036300035193563" lon="8.226898983120918">
        <ele>1516.6201169999999</ele>
        <time>2015-03-28T09:40:48Z</time>
      </trkpt>
      <trkpt lat="46.036341022700071" lon="8.226794041693211">
        <ele>1519.0200199999999</ele>
        <time>2015-03-28T09:41:06Z</time>
      </trkpt>
      <trkpt lat="46.036386033520103" lon="8.22670703753829">
        <ele>1522.3900149999999</ele>
        <time>2015-03-28T09:41:23Z</time>
      </trkpt>
      <trkpt lat="46.036430960521102" lon="8.226619027554989">
        <ele>1525.2698969999999</ele>
        <time>2015-03-28T09:41:40Z</time>
      </trkpt>
      <trkpt lat="46.036491980776191" lon="8.22649396955967">
        <ele>1528.630005</ele>
        <time>2015-03-28T09:41:59Z</time>
      </trkpt>
      <trkpt lat="46.036541014909744" lon="8.226354997605085">
        <ele>1531.5200199999999</ele>
        <time>2015-03-28T09:42:21Z</time>
      </trkpt>
      <trkpt lat="46.036568004637957" lon="8.226396990939975">
        <ele>1532.9600829999999</ele>
        <time>2015-03-28T09:43:00Z</time>
      </trkpt>
      <trkpt lat="46.03661603294313" lon="8.226440995931625">
        <ele>1536.3199460000001</ele>
        <time>2015-03-28T09:43:14Z</time>
      </trkpt>
      <trkpt lat="46.0366590321064" lon="8.226437978446484">
        <ele>1538.7299800000001</ele>
        <time>2015-03-28T09:43:28Z</time>
      </trkpt>
      <trkpt lat="46.036693984642625" lon="8.226459017023444">
        <ele>1540.650024</ele>
        <time>2015-03-28T09:43:41Z</time>
      </trkpt>
      <trkpt lat="46.036755004897714" lon="8.226443007588387">
        <ele>1543.0500489999999</ele>
        <time>2015-03-28T09:44:00Z</time>
      </trkpt>
      <trkpt lat="46.03679096326232" lon="8.226463040336967">
        <ele>1545.459961</ele>
        <time>2015-03-28T09:44:13Z</time>
      </trkpt>
      <trkpt lat="46.036823987960815" lon="8.226476032286882">
        <ele>1546.900024</ele>
        <time>2015-03-28T09:44:30Z</time>
      </trkpt>
      <trkpt lat="46.036867992952466" lon="8.226488018408418">
        <ele>1549.3000489999999</ele>
        <time>2015-03-28T09:44:51Z</time>
      </trkpt>
      <trkpt lat="46.036893976852298" lon="8.22649497538805">
        <ele>1551.2200929999999</ele>
        <time>2015-03-28T09:45:06Z</time>
      </trkpt>
      <trkpt lat="46.036919038742781" lon="8.226506961509585">
        <ele>1553.630005</ele>
        <time>2015-03-28T09:45:20Z</time>
      </trkpt>
      <trkpt lat="46.036962037906051" lon="8.226448958739638">
        <ele>1555.0699460000001</ele>
        <time>2015-03-28T09:45:32Z</time>
      </trkpt>
      <trkpt lat="46.03700595907867" lon="8.226332031190395">
        <ele>1556.51001</ele>
        <time>2015-03-28T09:45:46Z</time>
      </trkpt>
      <trkpt lat="46.037071002647281" lon="8.226287020370364">
        <ele>1557.9499510000001</ele>
        <time>2015-03-28T09:45:59Z</time>
      </trkpt>
      <trkpt lat="46.037131017073989" lon="8.22623698040843">
        <ele>1559.3999020000001</ele>
        <time>2015-03-28T09:46:11Z</time>
      </trkpt>
      <trkpt lat="46.037227995693684" lon="8.226218959316611">
        <ele>1560.839966</ele>
        <time>2015-03-28T09:46:27Z</time>
      </trkpt>
      <trkpt lat="46.037324974313378" lon="8.226090967655182">
        <ele>1561.799927</ele>
        <time>2015-03-28T09:46:45Z</time>
      </trkpt>
      <trkpt lat="46.037414995953441" lon="8.225944032892585">
        <ele>1563.23999</ele>
        <time>2015-03-28T09:47:05Z</time>
      </trkpt>
      <trkpt lat="46.037479033693671" lon="8.225877983495593">
        <ele>1564.679932</ele>
        <time>2015-03-28T09:47:19Z</time>
      </trkpt>
      <trkpt lat="46.037479033693671" lon="8.225796008482575">
        <ele>1564.679932</ele>
        <time>2015-03-28T09:47:32Z</time>
      </trkpt>
      <trkpt lat="46.037566959857941" lon="8.225630968809128">
        <ele>1566.119995</ele>
        <time>2015-03-28T09:47:55Z</time>
      </trkpt>
      <trkpt lat="46.037614988163114" lon="8.225583024322987">
        <ele>1567.570068</ele>
        <time>2015-03-28T09:48:09Z</time>
      </trkpt>
      <trkpt lat="46.037624962627888" lon="8.225556034594774">
        <ele>1568.530029</ele>
        <time>2015-03-28T09:48:22Z</time>
      </trkpt>
      <trkpt lat="46.037636026740074" lon="8.225587969645858">
        <ele>1568.0500489999999</ele>
        <time>2015-03-28T09:49:57Z</time>
      </trkpt>
      <trkpt lat="46.037672990933061" lon="8.225477999076247">
        <ele>1571.4099120000001</ele>
        <time>2015-03-28T09:50:28Z</time>
      </trkpt>
      <trkpt lat="46.037726970389485" lon="8.225404992699623">
        <ele>1574.3000489999999</ele>
        <time>2015-03-28T09:50:42Z</time>
      </trkpt>
      <trkpt lat="46.037805005908012" lon="8.225324023514986">
        <ele>1577.660034</ele>
        <time>2015-03-28T09:51:01Z</time>
      </trkpt>
      <trkpt lat="46.037828978151083" lon="8.225283036008477">
        <ele>1580.5399170000001</ele>
        <time>2015-03-28T09:51:23Z</time>
      </trkpt>
      <trkpt lat="46.037849010899663" lon="8.22522696107626">
        <ele>1582.9499510000001</ele>
        <time>2015-03-28T09:51:39Z</time>
      </trkpt>
      <trkpt lat="46.037883041426539" lon="8.225196031853557">
        <ele>1585.830078</ele>
        <time>2015-03-28T09:51:55Z</time>
      </trkpt>
      <trkpt lat="46.037899972870946" lon="8.225163007155061">
        <ele>1588.23999</ele>
        <time>2015-03-28T09:52:15Z</time>
      </trkpt>
      <trkpt lat="46.03790701366961" lon="8.225082959979773">
        <ele>1590.160034</ele>
        <time>2015-03-28T09:52:30Z</time>
      </trkpt>
      <trkpt lat="46.037903996184468" lon="8.225086983293295">
        <ele>1590.160034</ele>
        <time>2015-03-28T09:52:59Z</time>
      </trkpt>
      <trkpt lat="46.037920005619526" lon="8.225001990795136">
        <ele>1593.5200199999999</ele>
        <time>2015-03-28T09:53:26Z</time>
      </trkpt>
      <trkpt lat="46.037954036146402" lon="8.224924961104989">
        <ele>1596.4099120000001</ele>
        <time>2015-03-28T09:53:43Z</time>
      </trkpt>
      <trkpt lat="46.037968033924699" lon="8.224893026053906">
        <ele>1597.849976</ele>
        <time>2015-03-28T09:54:00Z</time>
      </trkpt>
      <trkpt lat="46.037985971197486" lon="8.224897971376777">
        <ele>1600.7299800000001</ele>
        <time>2015-03-28T09:54:27Z</time>
      </trkpt>
      <trkpt lat="46.037987982854247" lon="8.224852960556746">
        <ele>1602.660034</ele>
        <time>2015-03-28T09:54:49Z</time>
      </trkpt>
      <trkpt lat="46.037995023652911" lon="8.224809039384127">
        <ele>1604.579956</ele>
        <time>2015-03-28T09:55:03Z</time>
      </trkpt>
      <trkpt lat="46.037988988682628" lon="8.224727986380458">
        <ele>1606.9799800000001</ele>
        <time>2015-03-28T09:55:17Z</time>
      </trkpt>
      <trkpt lat="46.037987982854247" lon="8.224680041894317">
        <ele>1607.459961</ele>
        <time>2015-03-28T09:55:38Z</time>
      </trkpt>
      <trkpt lat="46.038035005331039" lon="8.224491029977799">
        <ele>1608.419922</ele>
        <time>2015-03-28T09:56:23Z</time>
      </trkpt>
      <trkpt lat="46.038076998665929" lon="8.224211996421218">
        <ele>1609.380005</ele>
        <time>2015-03-28T09:56:49Z</time>
      </trkpt>
      <trkpt lat="46.038136007264256" lon="8.223912008106709">
        <ele>1609.8599850000001</ele>
        <time>2015-03-28T09:57:16Z</time>
      </trkpt>
      <trkpt lat="46.038164002820849" lon="8.223774963989854">
        <ele>1610.830078</ele>
        <time>2015-03-28T09:57:37Z</time>
      </trkpt>
      <trkpt lat="46.038180012255907" lon="8.223604978993535">
        <ele>1610.830078</ele>
        <time>2015-03-28T09:57:58Z</time>
      </trkpt>
      <trkpt lat="46.038170959800482" lon="8.223747974261642">
        <ele>1611.3100589999999</ele>
        <time>2015-03-28T09:58:42Z</time>
      </trkpt>
      <trkpt lat="46.038159979507327" lon="8.223777981474996">
        <ele>1611.3100589999999</ele>
        <time>2015-03-28T09:59:05Z</time>
      </trkpt>
      <trkpt lat="46.038157967850566" lon="8.22374302893877">
        <ele>1610.830078</ele>
        <time>2015-03-28T09:59:55Z</time>
      </trkpt>
      <trkpt lat="46.038158973678946" lon="8.223713021725416">
        <ele>1610.830078</ele>
        <time>2015-03-28T10:00:22Z</time>
      </trkpt>
      <trkpt lat="46.038157967850566" lon="8.223712015897036">
        <ele>1610.830078</ele>
        <time>2015-03-28T10:00:52Z</time>
      </trkpt>
      <trkpt lat="46.038170037791133" lon="8.223654013127089">
        <ele>1610.830078</ele>
        <time>2015-03-28T10:01:43Z</time>
      </trkpt>
      <trkpt lat="46.038178000599146" lon="8.223568014800549">
        <ele>1610.830078</ele>
        <time>2015-03-28T10:02:16Z</time>
      </trkpt>
      <trkpt lat="46.03816500864923" lon="8.223672034218907">
        <ele>1610.830078</ele>
        <time>2015-03-28T10:02:34Z</time>
      </trkpt>
      <trkpt lat="46.038159979507327" lon="8.223747974261642">
        <ele>1610.349976</ele>
        <time>2015-03-28T10:03:02Z</time>
      </trkpt>
      <trkpt lat="46.038161991164088" lon="8.223735988140106">
        <ele>1610.349976</ele>
        <time>2015-03-28T10:04:01Z</time>
      </trkpt>
      <trkpt lat="46.038152016699314" lon="8.223763983696699">
        <ele>1610.830078</ele>
        <time>2015-03-28T10:04:33Z</time>
      </trkpt>
      <trkpt lat="46.038153022527695" lon="8.223775969818234">
        <ele>1610.349976</ele>
        <time>2015-03-28T10:05:03Z</time>
      </trkpt>
      <trkpt lat="46.038153022527695" lon="8.223757026717067">
        <ele>1610.349976</ele>
        <time>2015-03-28T10:05:41Z</time>
      </trkpt>
      <trkpt lat="46.038158973678946" lon="8.223770018666983">
        <ele>1610.830078</ele>
        <time>2015-03-28T10:07:44Z</time>
      </trkpt>
      <trkpt lat="46.038155034184456" lon="8.223778987303376">
        <ele>1610.830078</ele>
        <time>2015-03-28T10:08:16Z</time>
      </trkpt>
      <trkpt lat="46.038156040012836" lon="8.223754009231925">
        <ele>1610.830078</ele>
        <time>2015-03-28T10:10:28Z</time>
      </trkpt>
      <trkpt lat="46.038137013092637" lon="8.22376599535346">
        <ele>1611.790039</ele>
        <time>2015-03-28T10:10:57Z</time>
      </trkpt>
      <trkpt lat="46.038147993385792" lon="8.223783010616899">
        <ele>1611.3100589999999</ele>
        <time>2015-03-28T10:15:03Z</time>
      </trkpt>
      <trkpt lat="46.038158973678946" lon="8.223754009231925">
        <ele>1610.830078</ele>
        <time>2015-03-28T10:16:52Z</time>
      </trkpt>
      <trkpt lat="46.038159979507327" lon="8.223770018666983">
        <ele>1610.830078</ele>
        <time>2015-03-28T10:17:13Z</time>
      </trkpt>
      <trkpt lat="46.038150005042553" lon="8.223744034767151">
        <ele>1611.3100589999999</ele>
        <time>2015-03-28T10:17:38Z</time>
      </trkpt>
      <trkpt lat="46.03814497590065" lon="8.22374302893877">
        <ele>1611.3100589999999</ele>
        <time>2015-03-28T10:19:01Z</time>
      </trkpt>
      <trkpt lat="46.038142964243889" lon="8.223741017282009">
        <ele>1610.830078</ele>
        <time>2015-03-28T10:19:45Z</time>
      </trkpt>
      <trkpt lat="46.038139024749398" lon="8.22370296344161">
        <ele>1611.3100589999999</ele>
        <time>2015-03-28T10:20:13Z</time>
      </trkpt>
      <trkpt lat="46.038152016699314" lon="8.223675973713398">
        <ele>1611.3100589999999</ele>
        <time>2015-03-28T10:20:31Z</time>
      </trkpt>
      <trkpt lat="46.038155034184456" lon="8.223669016733766">
        <ele>1610.830078</ele>
        <time>2015-03-28T10:20:59Z</time>
      </trkpt>
      <trkpt lat="46.038145981729031" lon="8.22365996427834">
        <ele>1609.8599850000001</ele>
        <time>2015-03-28T10:21:29Z</time>
      </trkpt>
      <trkpt lat="46.03814497590065" lon="8.223662981763482">
        <ele>1610.349976</ele>
        <time>2015-03-28T10:23:03Z</time>
      </trkpt>
      <trkpt lat="46.038141958415508" lon="8.223662981763482">
        <ele>1611.3100589999999</ele>
        <time>2015-03-28T10:27:56Z</time>
      </trkpt>
      <trkpt lat="46.038142964243889" lon="8.223665999248624">
        <ele>1610.830078</ele>
        <time>2015-03-28T10:28:04Z</time>
      </trkpt>
      <trkpt lat="46.038118992000818" lon="8.22385199368">
        <ele>1610.349976</ele>
        <time>2015-03-28T10:28:19Z</time>
      </trkpt>
      <trkpt lat="46.038074987009168" lon="8.22412901557982">
        <ele>1609.8599850000001</ele>
        <time>2015-03-28T10:28:37Z</time>
      </trkpt>
      <trkpt lat="46.038041962310672" lon="8.224420035257936">
        <ele>1608.900024</ele>
        <time>2015-03-28T10:28:57Z</time>
      </trkpt>
      <trkpt lat="46.038010027259588" lon="8.224506033584476">
        <ele>1608.419922</ele>
        <time>2015-03-28T10:29:15Z</time>
      </trkpt>
      <trkpt lat="46.037992006167769" lon="8.22462597861886">
        <ele>1606.9799800000001</ele>
        <time>2015-03-28T10:29:36Z</time>
      </trkpt>
      <trkpt lat="46.037991000339389" lon="8.224643999710679">
        <ele>1606.9799800000001</ele>
        <time>2015-03-28T10:29:37Z</time>
      </trkpt>
      <trkpt lat="46.037957975640893" lon="8.224766040220857">
        <ele>1605.5399170000001</ele>
        <time>2015-03-28T10:29:55Z</time>
      </trkpt>
      <trkpt lat="46.03795001283288" lon="8.22484097443521">
        <ele>1602.170044</ele>
        <time>2015-03-28T10:30:12Z</time>
      </trkpt>
      <trkpt lat="46.037967028096318" lon="8.224853966385126">
        <ele>1602.170044</ele>
        <time>2015-03-28T10:30:57Z</time>
      </trkpt>
      <trkpt lat="46.037966022267938" lon="8.224905012175441">
        <ele>1599.290039</ele>
        <time>2015-03-28T10:31:18Z</time>
      </trkpt>
      <trkpt lat="46.037963004782796" lon="8.224951028823853">
        <ele>1596.8900149999999</ele>
        <time>2015-03-28T10:31:34Z</time>
      </trkpt>
      <trkpt lat="46.037926040589809" lon="8.225045995786786">
        <ele>1593.5200199999999</ele>
        <time>2015-03-28T10:31:50Z</time>
      </trkpt>
      <trkpt lat="46.037897039204836" lon="8.225123025476933">
        <ele>1590.6400149999999</ele>
        <time>2015-03-28T10:32:04Z</time>
      </trkpt>
      <trkpt lat="46.037892010062933" lon="8.225114978849888">
        <ele>1590.160034</ele>
        <time>2015-03-28T10:32:32Z</time>
      </trkpt>
      <trkpt lat="46.037891004234552" lon="8.225114978849888">
        <ele>1589.679932</ele>
        <time>2015-03-28T10:32:51Z</time>
      </trkpt>
      <trkpt lat="46.037888992577791" lon="8.225114978849888">
        <ele>1589.679932</ele>
        <time>2015-03-28T10:33:24Z</time>
      </trkpt>
      <trkpt lat="46.037889998406172" lon="8.22511900216341">
        <ele>1589.679932</ele>
        <time>2015-03-28T10:34:28Z</time>
      </trkpt>
      <trkpt lat="46.037888992577791" lon="8.22511799633503">
        <ele>1590.160034</ele>
        <time>2015-03-28T10:36:27Z</time>
      </trkpt>
      <trkpt lat="46.037868959829211" lon="8.225185973569751">
        <ele>1587.7498780000001</ele>
        <time>2015-03-28T10:37:06Z</time>
      </trkpt>
      <trkpt lat="46.037852028384805" lon="8.225251017138362">
        <ele>1584.3900149999999</ele>
        <time>2015-03-28T10:37:27Z</time>
      </trkpt>
      <trkpt lat="46.037836018949747" lon="8.2253129594028">
        <ele>1581.51001</ele>
        <time>2015-03-28T10:37:41Z</time>
      </trkpt>
      <trkpt lat="46.037816992029548" lon="8.225381020456553">
        <ele>1579.1000979999999</ele>
        <time>2015-03-28T10:38:01Z</time>
      </trkpt>
      <trkpt lat="46.037814980372787" lon="8.225385965779424">
        <ele>1578.6201169999999</ele>
        <time>2015-03-28T10:39:20Z</time>
      </trkpt>
      <trkpt lat="46.037811040878296" lon="8.225398035719991">
        <ele>1579.1000979999999</ele>
        <time>2015-03-28T10:40:27Z</time>
      </trkpt>
      <trkpt lat="46.037824032828212" lon="8.225404992699623">
        <ele>1579.1000979999999</ele>
        <time>2015-03-28T10:42:03Z</time>
      </trkpt>
      <trkpt lat="46.037823026999831" lon="8.225416978821158">
        <ele>1578.6201169999999</ele>
        <time>2015-03-28T10:42:34Z</time>
      </trkpt>
      <trkpt lat="46.037771981209517" lon="8.225425025448203">
        <ele>1577.1800539999999</ele>
        <time>2015-03-28T10:43:20Z</time>
      </trkpt>
      <trkpt lat="46.037705009803176" lon="8.225508006289601">
        <ele>1575.73999</ele>
        <time>2015-03-28T10:43:36Z</time>
      </trkpt>
      <trkpt lat="46.037653964012861" lon="8.225581012666225">
        <ele>1572.369995</ele>
        <time>2015-03-28T10:43:46Z</time>
      </trkpt>
      <trkpt lat="46.037636026740074" lon="8.225606996566057">
        <ele>1570.929932</ele>
        <time>2015-03-28T10:43:51Z</time>
      </trkpt>
      <trkpt lat="46.037584980949759" lon="8.225723002105951">
        <ele>1568.0500489999999</ele>
        <time>2015-03-28T10:44:03Z</time>
      </trkpt>
      <trkpt lat="46.037504011765122" lon="8.225831966847181">
        <ele>1568.0500489999999</ele>
        <time>2015-03-28T10:44:17Z</time>
      </trkpt>
      <trkpt lat="46.037437040358782" lon="8.225948978215456">
        <ele>1566.119995</ele>
        <time>2015-03-28T10:44:34Z</time>
      </trkpt>
      <trkpt lat="46.037438968196511" lon="8.226119969040155">
        <ele>1565.160034</ele>
        <time>2015-03-28T10:44:52Z</time>
      </trkpt>
      <trkpt lat="46.037367973476648" lon="8.226220970973373">
        <ele>1564.1999510000001</ele>
        <time>2015-03-28T10:45:09Z</time>
      </trkpt>
      <trkpt lat="46.037371996790171" lon="8.226232035085559">
        <ele>1564.1999510000001</ele>
        <time>2015-03-28T10:45:10Z</time>
      </trkpt>
      <trkpt lat="46.037279963493347" lon="8.226366983726621">
        <ele>1564.1999510000001</ele>
        <time>2015-03-28T10:45:26Z</time>
      </trkpt>
      <trkpt lat="46.037207040935755" lon="8.226388022303581">
        <ele>1565.160034</ele>
        <time>2015-03-28T10:45:36Z</time>
      </trkpt>
      <trkpt lat="46.037098998203874" lon="8.226464968174696">
        <ele>1565.160034</ele>
        <time>2015-03-28T10:45:49Z</time>
      </trkpt>
      <trkpt lat="46.037096986547112" lon="8.226570999249816">
        <ele>1564.679932</ele>
        <time>2015-03-28T10:46:04Z</time>
      </trkpt>
      <trkpt lat="46.037083994597197" lon="8.226613998413086">
        <ele>1562.76001</ele>
        <time>2015-03-28T10:46:18Z</time>
      </trkpt>
      <trkpt lat="46.037044012919068" lon="8.226654985919595">
        <ele>1560.839966</ele>
        <time>2015-03-28T10:46:34Z</time>
      </trkpt>
      <trkpt lat="46.03700696490705" lon="8.226722041144967">
        <ele>1558.920044</ele>
        <time>2015-03-28T10:46:56Z</time>
      </trkpt>
      <trkpt lat="46.037020962685347" lon="8.226742995902896">
        <ele>1556.98999</ele>
        <time>2015-03-28T10:47:20Z</time>
      </trkpt>
      <trkpt lat="46.036993972957134" lon="8.22675003670156">
        <ele>1556.030029</ele>
        <time>2015-03-28T10:47:38Z</time>
      </trkpt>
      <trkpt lat="46.036994978785515" lon="8.226788006722927">
        <ele>1554.589966</ele>
        <time>2015-03-28T10:47:58Z</time>
      </trkpt>
      <trkpt lat="46.03696002624929" lon="8.226827988401055">
        <ele>1553.150024</ele>
        <time>2015-03-28T10:48:16Z</time>
      </trkpt>
      <trkpt lat="46.03692096658051" lon="8.226778032258153">
        <ele>1552.1899410000001</ele>
        <time>2015-03-28T10:48:30Z</time>
      </trkpt>
      <trkpt lat="46.036857012659311" lon="8.226776020601392">
        <ele>1549.3000489999999</ele>
        <time>2015-03-28T10:48:46Z</time>
      </trkpt>
      <trkpt lat="46.036766991019249" lon="8.22668599896133">
        <ele>1546.900024</ele>
        <time>2015-03-28T10:49:01Z</time>
      </trkpt>
      <trkpt lat="46.036699013784528" lon="8.226669989526272">
        <ele>1543.530029</ele>
        <time>2015-03-28T10:49:18Z</time>
      </trkpt>
      <trkpt lat="46.036614021286368" lon="8.226822037249804">
        <ele>1541.6099850000001</ele>
        <time>2015-03-28T10:49:35Z</time>
      </trkpt>
      <trkpt lat="46.036582002416253" lon="8.226937036961317">
        <ele>1540.170044</ele>
        <time>2015-03-28T10:49:49Z</time>
      </trkpt>
      <trkpt lat="46.036560041829944" lon="8.227007025852799">
        <ele>1536.799927</ele>
        <time>2015-03-28T10:50:00Z</time>
      </trkpt>
      <trkpt lat="46.036521987989545" lon="8.227097969502211">
        <ele>1534.3999020000001</ele>
        <time>2015-03-28T10:50:13Z</time>
      </trkpt>
      <trkpt lat="46.036430960521102" lon="8.227168964222074">
        <ele>1531.040039</ele>
        <time>2015-03-28T10:50:29Z</time>
      </trkpt>
      <trkpt lat="46.036398019641638" lon="8.227219004184008">
        <ele>1528.630005</ele>
        <time>2015-03-28T10:50:46Z</time>
      </trkpt>
      <trkpt lat="46.03640397079289" lon="8.227286981418729">
        <ele>1526.709961</ele>
        <time>2015-03-28T10:51:02Z</time>
      </trkpt>
      <trkpt lat="46.036344040185213" lon="8.227346995845437">
        <ele>1525.2698969999999</ele>
        <time>2015-03-28T10:51:17Z</time>
      </trkpt>
      <trkpt lat="46.036341022700071" lon="8.227396029978991">
        <ele>1523.3500979999999</ele>
        <time>2015-03-28T10:51:40Z</time>
      </trkpt>
      <trkpt lat="46.03638201020658" lon="8.227424025535584">
        <ele>1521.420044</ele>
        <time>2015-03-28T10:52:07Z</time>
      </trkpt>
      <trkpt lat="46.036284025758505" lon="8.227519998326898">
        <ele>1519.9799800000001</ele>
        <time>2015-03-28T10:52:25Z</time>
      </trkpt>
      <trkpt lat="46.036290982738137" lon="8.227558974176645">
        <ele>1516.6201169999999</ele>
        <time>2015-03-28T10:52:41Z</time>
      </trkpt>
      <trkpt lat="46.03623297996819" lon="8.227568026632071">
        <ele>1515.6599120000001</ele>
        <time>2015-03-28T10:52:54Z</time>
      </trkpt>
      <trkpt lat="46.036212025210261" lon="8.22763298638165">
        <ele>1513.25</ele>
        <time>2015-03-28T10:53:08Z</time>
      </trkpt>
      <trkpt lat="46.036173971369863" lon="8.227691994979978">
        <ele>1510.369995</ele>
        <time>2015-03-28T10:53:29Z</time>
      </trkpt>
      <trkpt lat="46.036116974428296" lon="8.227688977494836">
        <ele>1508.929932</ele>
        <time>2015-03-28T10:53:42Z</time>
      </trkpt>
      <trkpt lat="46.03605997748673" lon="8.227680008858442">
        <ele>1507</ele>
        <time>2015-03-28T10:53:57Z</time>
      </trkpt>
      <trkpt lat="46.036069029942155" lon="8.227699035778642">
        <ele>1506.5200199999999</ele>
        <time>2015-03-28T10:54:13Z</time>
      </trkpt>
      <trkpt lat="46.036071041598916" lon="8.227743040770292">
        <ele>1505.5600589999999</ele>
        <time>2015-03-28T10:54:31Z</time>
      </trkpt>
      <trkpt lat="46.036070035770535" lon="8.227801965549588">
        <ele>1502.6800539999999</ele>
        <time>2015-03-28T10:54:58Z</time>
      </trkpt>
      <trkpt lat="46.036043968051672" lon="8.227828033268452">
        <ele>1500.2698969999999</ele>
        <time>2015-03-28T10:55:13Z</time>
      </trkpt>
      <trkpt lat="46.036031981930137" lon="8.227847982198">
        <ele>1499.790039</ele>
        <time>2015-03-28T10:55:40Z</time>
      </trkpt>
      <trkpt lat="46.036001974716783" lon="8.227861979976296">
        <ele>1499.3100589999999</ele>
        <time>2015-03-28T10:55:56Z</time>
      </trkpt>
      <trkpt lat="46.036004992201924" lon="8.227858040481806">
        <ele>1497.869995</ele>
        <time>2015-03-28T10:56:07Z</time>
      </trkpt>
      <trkpt lat="46.035996023565531" lon="8.227887963876128">
        <ele>1498.3500979999999</ele>
        <time>2015-03-28T10:57:05Z</time>
      </trkpt>
      <trkpt lat="46.03599401190877" lon="8.227872960269451">
        <ele>1498.3500979999999</ele>
        <time>2015-03-28T10:57:29Z</time>
      </trkpt>
      <trkpt lat="46.03599501773715" lon="8.227846976369619">
        <ele>1498.3500979999999</ele>
        <time>2015-03-28T10:57:44Z</time>
      </trkpt>
      <trkpt lat="46.035965010523796" lon="8.227850999683142">
        <ele>1498.3500979999999</ele>
        <time>2015-03-28T10:58:10Z</time>
      </trkpt>
      <trkpt lat="46.035904996097088" lon="8.227856028825045">
        <ele>1497.869995</ele>
        <time>2015-03-28T10:58:25Z</time>
      </trkpt>
      <trkpt lat="46.035859985277057" lon="8.227846976369619">
        <ele>1495.950073</ele>
        <time>2015-03-28T10:58:39Z</time>
      </trkpt>
      <trkpt lat="46.035858979448676" lon="8.227812023833394">
        <ele>1495.469971</ele>
        <time>2015-03-28T10:59:06Z</time>
      </trkpt>
      <trkpt lat="46.035859985277057" lon="8.227826021611691">
        <ele>1495.950073</ele>
        <time>2015-03-28T10:59:35Z</time>
      </trkpt>
      <trkpt lat="46.035872977226973" lon="8.227899027988315">
        <ele>1494.030029</ele>
        <time>2015-03-28T11:00:05Z</time>
      </trkpt>
      <trkpt lat="46.035815980285406" lon="8.227959964424372">
        <ele>1491.139893</ele>
        <time>2015-03-28T11:00:22Z</time>
      </trkpt>
      <trkpt lat="46.035755965858698" lon="8.227918976917863">
        <ele>1487.780029</ele>
        <time>2015-03-28T11:00:40Z</time>
      </trkpt>
      <trkpt lat="46.03573702275753" lon="8.227943032979965">
        <ele>1485.849976</ele>
        <time>2015-03-28T11:00:57Z</time>
      </trkpt>
      <trkpt lat="46.035729981958866" lon="8.227987037971616">
        <ele>1484.8900149999999</ele>
        <time>2015-03-28T11:01:04Z</time>
      </trkpt>
      <trkpt lat="46.035740962252021" lon="8.228027019649744">
        <ele>1484.4099120000001</ele>
        <time>2015-03-28T11:01:21Z</time>
      </trkpt>
      <trkpt lat="46.035664016380906" lon="8.228031964972615">
        <ele>1482.009888</ele>
        <time>2015-03-28T11:02:21Z</time>
      </trkpt>
      <trkpt lat="46.035653036087751" lon="8.228150987997651">
        <ele>1479.130005</ele>
        <time>2015-03-28T11:02:39Z</time>
      </trkpt>
      <trkpt lat="46.035613976418972" lon="8.228183006867766">
        <ele>1476.719971</ele>
        <time>2015-03-28T11:02:54Z</time>
      </trkpt>
      <trkpt lat="46.035558991134167" lon="8.228283002972603">
        <ele>1473.3599850000001</ele>
        <time>2015-03-28T11:03:12Z</time>
      </trkpt>
      <trkpt lat="46.035507023334503" lon="8.228292977437377">
        <ele>1470.950073</ele>
        <time>2015-03-28T11:03:26Z</time>
      </trkpt>
      <trkpt lat="46.035493025556207" lon="8.228310998529196">
        <ele>1468.5500489999999</ele>
        <time>2015-03-28T11:03:41Z</time>
      </trkpt>
      <trkpt lat="46.035476010292768" lon="8.228378975763917">
        <ele>1466.150024</ele>
        <time>2015-03-28T11:03:57Z</time>
      </trkpt>
      <trkpt lat="46.03545798920095" lon="8.228432033210993">
        <ele>1463.26001</ele>
        <time>2015-03-28T11:04:14Z</time>
      </trkpt>
      <trkpt lat="46.035411972552538" lon="8.228464974090457">
        <ele>1460.380005</ele>
        <time>2015-03-28T11:04:30Z</time>
      </trkpt>
      <trkpt lat="46.035376014187932" lon="8.228545021265745">
        <ele>1457.0200199999999</ele>
        <time>2015-03-28T11:04:50Z</time>
      </trkpt>
      <trkpt lat="46.035355981439352" lon="8.228557007387281">
        <ele>1455.0900879999999</ele>
        <time>2015-03-28T11:05:05Z</time>
      </trkpt>
      <trkpt lat="46.035314993932843" lon="8.228655997663736">
        <ele>1452.209961</ele>
        <time>2015-03-28T11:05:23Z</time>
      </trkpt>
      <trkpt lat="46.035336032509804" lon="8.228704025968909">
        <ele>1449.8100589999999</ele>
        <time>2015-03-28T11:05:48Z</time>
      </trkpt>
      <trkpt lat="46.035310970619321" lon="8.228797987103462">
        <ele>1448.839966</ele>
        <time>2015-03-28T11:06:11Z</time>
      </trkpt>
      <trkpt lat="46.035268977284431" lon="8.228874010965228">
        <ele>1446.919922</ele>
        <time>2015-03-28T11:06:26Z</time>
      </trkpt>
      <trkpt lat="46.03526302613318" lon="8.228892032057047">
        <ele>1445.4801030000001</ele>
        <time>2015-03-28T11:06:38Z</time>
      </trkpt>
      <trkpt lat="46.035235030576587" lon="8.228946011513472">
        <ele>1443.5600589999999</ele>
        <time>2015-03-28T11:06:53Z</time>
      </trkpt>
      <trkpt lat="46.035207035019994" lon="8.228993033990264">
        <ele>1442.599976</ele>
        <time>2015-03-28T11:07:05Z</time>
      </trkpt>
      <trkpt lat="46.035195970907807" lon="8.22904902510345">
        <ele>1440.1899410000001</ele>
        <time>2015-03-28T11:07:22Z</time>
      </trkpt>
      <trkpt lat="46.035204017534852" lon="8.229077020660043">
        <ele>1437.7899170000001</ele>
        <time>2015-03-28T11:07:37Z</time>
      </trkpt>
      <trkpt lat="46.035168981179595" lon="8.229096969589591">
        <ele>1435.3900149999999</ele>
        <time>2015-03-28T11:07:55Z</time>
      </trkpt>
      <trkpt lat="46.035194965079427" lon="8.229175005108118">
        <ele>1433.459961</ele>
        <time>2015-03-28T11:08:10Z</time>
      </trkpt>
      <trkpt lat="46.035141991451383" lon="8.229226972907782">
        <ele>1430.099976</ele>
        <time>2015-03-28T11:08:28Z</time>
      </trkpt>
      <trkpt lat="46.035093041136861" lon="8.229290004819632">
        <ele>1427.209961</ele>
        <time>2015-03-28T11:08:46Z</time>
      </trkpt>
      <trkpt lat="46.035045012831688" lon="8.229280030354857">
        <ele>1424.329956</ele>
        <time>2015-03-28T11:09:09Z</time>
      </trkpt>
      <trkpt lat="46.035004025325179" lon="8.229331998154521">
        <ele>1421.929932</ele>
        <time>2015-03-28T11:09:22Z</time>
      </trkpt>
      <trkpt lat="46.035025985911489" lon="8.229411039501429">
        <ele>1420</ele>
        <time>2015-03-28T11:09:36Z</time>
      </trkpt>
      <trkpt lat="46.034990027546883" lon="8.229374997317791">
        <ele>1420</ele>
        <time>2015-03-28T11:09:50Z</time>
      </trkpt>
      <trkpt lat="46.03494300507009" lon="8.229321017861366">
        <ele>1416.6400149999999</ele>
        <time>2015-03-28T11:10:07Z</time>
      </trkpt>
      <trkpt lat="46.034944010898471" lon="8.229378014802933">
        <ele>1415.6800539999999</ele>
        <time>2015-03-28T11:10:23Z</time>
      </trkpt>
      <trkpt lat="46.03496303781867" lon="8.229466024786234">
        <ele>1415.6800539999999</ele>
        <time>2015-03-28T11:10:37Z</time>
      </trkpt>
      <trkpt lat="46.034981980919838" lon="8.229505000635982">
        <ele>1413.280029</ele>
        <time>2015-03-28T11:10:51Z</time>
      </trkpt>
      <trkpt lat="46.035001007840037" lon="8.229570966213942">
        <ele>1410.3900149999999</ele>
        <time>2015-03-28T11:11:05Z</time>
      </trkpt>
      <trkpt lat="46.034971000626683" lon="8.229655958712101">
        <ele>1408.469971</ele>
        <time>2015-03-28T11:11:17Z</time>
      </trkpt>
      <trkpt lat="46.034923978149891" lon="8.229680014774203">
        <ele>1405.579956</ele>
        <time>2015-03-28T11:11:32Z</time>
      </trkpt>
      <trkpt lat="46.034909980371594" lon="8.229698035866022">
        <ele>1404.139893</ele>
        <time>2015-03-28T11:11:44Z</time>
      </trkpt>
      <trkpt lat="46.034874022006989" lon="8.229722008109093">
        <ele>1401.7398679999999</ele>
        <time>2015-03-28T11:11:58Z</time>
      </trkpt>
      <trkpt lat="46.034819958731532" lon="8.229750003665686">
        <ele>1398.8599850000001</ele>
        <time>2015-03-28T11:12:13Z</time>
      </trkpt>
      <trkpt lat="46.034794980660081" lon="8.229739023372531">
        <ele>1396.4499510000001</ele>
        <time>2015-03-28T11:12:29Z</time>
      </trkpt>
      <trkpt lat="46.034788023680449" lon="8.229783028364182">
        <ele>1395.01001</ele>
        <time>2015-03-28T11:12:44Z</time>
      </trkpt>
      <trkpt lat="46.03481400758028" lon="8.229826027527452">
        <ele>1391.650024</ele>
        <time>2015-03-28T11:13:07Z</time>
      </trkpt>
      <trkpt lat="46.034773020073771" lon="8.229928035289049">
        <ele>1388.76001</ele>
        <time>2015-03-28T11:13:21Z</time>
      </trkpt>
      <trkpt lat="46.034751981496811" lon="8.229955025017262">
        <ele>1386.839966</ele>
        <time>2015-03-28T11:13:30Z</time>
      </trkpt>
      <trkpt lat="46.034687021747231" lon="8.230006992816925">
        <ele>1385.3999020000001</ele>
        <time>2015-03-28T11:13:43Z</time>
      </trkpt>
      <trkpt lat="46.034658020362258" lon="8.230067007243633">
        <ele>1382.51001</ele>
        <time>2015-03-28T11:14:03Z</time>
      </trkpt>
      <trkpt lat="46.034648967906833" lon="8.230185024440289">
        <ele>1379.150024</ele>
        <time>2015-03-28T11:14:24Z</time>
      </trkpt>
      <trkpt lat="46.034634970128536" lon="8.230261970311403">
        <ele>1376.26001</ele>
        <time>2015-03-28T11:14:40Z</time>
      </trkpt>
      <trkpt lat="46.034610997885466" lon="8.230335982516408">
        <ele>1373.8599850000001</ele>
        <time>2015-03-28T11:14:57Z</time>
      </trkpt>
      <trkpt lat="46.034647962078452" lon="8.230419969186187">
        <ele>1370.5</ele>
        <time>2015-03-28T11:15:14Z</time>
      </trkpt>
      <trkpt lat="46.034591970965266" lon="8.230520971119404">
        <ele>1367.610107</ele>
        <time>2015-03-28T11:15:33Z</time>
      </trkpt>
      <trkpt lat="46.034541008993983" lon="8.230580985546112">
        <ele>1365.2100829999999</ele>
        <time>2015-03-28T11:15:47Z</time>
      </trkpt>
      <trkpt lat="46.03453204035759" lon="8.230685004964471">
        <ele>1362.8100589999999</ele>
        <time>2015-03-28T11:16:03Z</time>
      </trkpt>
      <trkpt lat="46.034480994567275" lon="8.230707971379161">
        <ele>1361.3599850000001</ele>
        <time>2015-03-28T11:16:11Z</time>
      </trkpt>
      <trkpt lat="46.034429026767612" lon="8.230734039098024">
        <ele>1358.4801030000001</ele>
        <time>2015-03-28T11:16:26Z</time>
      </trkpt>
      <trkpt lat="46.034402959048748" lon="8.230783995240927">
        <ele>1355.119995</ele>
        <time>2015-03-28T11:16:42Z</time>
      </trkpt>
      <trkpt lat="46.034374963492155" lon="8.230849038809538">
        <ele>1352.709961</ele>
        <time>2015-03-28T11:17:02Z</time>
      </trkpt>
      <trkpt lat="46.034374041482806" lon="8.230907041579485">
        <ele>1349.3500979999999</ele>
        <time>2015-03-28T11:17:17Z</time>
      </trkpt>
      <trkpt lat="46.034378986805677" lon="8.230982981622219">
        <ele>1346.459961</ele>
        <time>2015-03-28T11:17:34Z</time>
      </trkpt>
      <trkpt lat="46.034308997914195" lon="8.231120025739074">
        <ele>1344.059937</ele>
        <time>2015-03-28T11:17:50Z</time>
      </trkpt>
      <trkpt lat="46.034267004579306" lon="8.231119019910693">
        <ele>1341.179932</ele>
        <time>2015-03-28T11:18:06Z</time>
      </trkpt>
      <trkpt lat="46.034264992922544" lon="8.231139974668622">
        <ele>1337.8100589999999</ele>
        <time>2015-03-28T11:18:25Z</time>
      </trkpt>
      <trkpt lat="46.034259041771293" lon="8.231265032663941">
        <ele>1334.929932</ele>
        <time>2015-03-28T11:18:43Z</time>
      </trkpt>
      <trkpt lat="46.034192992374301" lon="8.231368968263269">
        <ele>1332.040039</ele>
        <time>2015-03-28T11:18:59Z</time>
      </trkpt>
      <trkpt lat="46.034143036231399" lon="8.231352958828211">
        <ele>1330.119995</ele>
        <time>2015-03-28T11:19:13Z</time>
      </trkpt>
      <trkpt lat="46.034140018746257" lon="8.231380032375455">
        <ele>1327.719971</ele>
        <time>2015-03-28T11:19:29Z</time>
      </trkpt>
      <trkpt lat="46.034127026796341" lon="8.231439040973783">
        <ele>1325.799927</ele>
        <time>2015-03-28T11:19:42Z</time>
      </trkpt>
      <trkpt lat="46.034142030403018" lon="8.231508024036884">
        <ele>1323.8698730000001</ele>
        <time>2015-03-28T11:19:56Z</time>
      </trkpt>
      <trkpt lat="46.034146975725889" lon="8.231617994606495">
        <ele>1320.98999</ele>
        <time>2015-03-28T11:20:14Z</time>
      </trkpt>
      <trkpt lat="46.034076986834407" lon="8.231668034568429">
        <ele>1319.070068</ele>
        <time>2015-03-28T11:20:28Z</time>
      </trkpt>
      <trkpt lat="46.034045973792672" lon="8.231597961857915">
        <ele>1318.099976</ele>
        <time>2015-03-28T11:20:42Z</time>
      </trkpt>
      <trkpt lat="46.034052008762956" lon="8.231612965464592">
        <ele>1317.1400149999999</ele>
        <time>2015-03-28T11:21:13Z</time>
      </trkpt>
      <trkpt lat="46.034069024026394" lon="8.231594022363424">
        <ele>1313.780029</ele>
        <time>2015-03-28T11:45:35Z</time>
      </trkpt>
      <trkpt lat="46.03408302180469" lon="8.231556974351406">
        <ele>1311.380005</ele>
        <time>2015-03-28T12:10:48Z</time>
      </trkpt>
      <trkpt lat="46.034095007926226" lon="8.231526967138052">
        <ele>1311.8599850000001</ele>
        <time>2015-03-28T12:11:05Z</time>
      </trkpt>
      <trkpt lat="46.034196009859443" lon="8.231359999626875">
        <ele>1308.48999</ele>
        <time>2015-03-28T12:16:08Z</time>
      </trkpt>
      <trkpt lat="46.034248983487487" lon="8.231268972158432">
        <ele>1305.610107</ele>
        <time>2015-03-28T12:19:14Z</time>
      </trkpt>
      <trkpt lat="46.034287037327886" lon="8.231206024065614">
        <ele>1302.719971</ele>
        <time>2015-03-28T12:21:52Z</time>
      </trkpt>
      <trkpt lat="46.034285025671124" lon="8.231204012408853">
        <ele>1299.3599850000001</ele>
        <time>2015-03-28T12:24:38Z</time>
      </trkpt>
      <trkpt lat="46.034328024834394" lon="8.231147015467286">
        <ele>1296.4801030000001</ele>
        <time>2015-03-28T12:27:40Z</time>
      </trkpt>
      <trkpt lat="46.034167008474469" lon="8.231337033212185">
        <ele>1296.959961</ele>
        <time>2015-03-28T12:29:24Z</time>
      </trkpt>
      <trkpt lat="46.033832989633083" lon="8.231704998761416">
        <ele>1299.839966</ele>
        <time>2015-03-28T12:37:58Z</time>
      </trkpt>
      <trkpt lat="46.03378102183342" lon="8.231753027066588">
        <ele>1302.719971</ele>
        <time>2015-03-28T12:40:09Z</time>
      </trkpt>
      <trkpt lat="46.033749002963305" lon="8.231780016794801">
        <ele>1305.610107</ele>
        <time>2015-03-28T12:41:42Z</time>
      </trkpt>
      <trkpt lat="46.033683037385345" lon="8.231866015121341">
        <ele>1308.969971</ele>
        <time>2015-03-28T12:43:42Z</time>
      </trkpt>
      <trkpt lat="46.033669039607048" lon="8.23188403621316">
        <ele>1311.8599850000001</ele>
        <time>2015-03-28T12:45:13Z</time>
      </trkpt>
      <trkpt lat="46.033706003800035" lon="8.231837013736367">
        <ele>1314.740112</ele>
        <time>2015-03-28T12:46:36Z</time>
      </trkpt>
      <trkpt lat="46.033707009628415" lon="8.231841959059238">
        <ele>1316.6599120000001</ele>
        <time>2015-03-28T12:47:23Z</time>
      </trkpt>
      <trkpt lat="46.033750008791685" lon="8.231827961280942">
        <ele>1318.589966</ele>
        <time>2015-03-28T12:48:07Z</time>
      </trkpt>
      <trkpt lat="46.033758977428079" lon="8.231830978766084">
        <ele>1320.030029</ele>
        <time>2015-03-28T12:48:57Z</time>
      </trkpt>
      <trkpt lat="46.03382502682507" lon="8.231846988201141">
        <ele>1321.4700929999999</ele>
        <time>2015-03-28T12:50:02Z</time>
      </trkpt>
      <trkpt lat="46.033872971311212" lon="8.231809018179774">
        <ele>1321.4700929999999</ele>
        <time>2015-03-28T12:50:27Z</time>
      </trkpt>
      <trkpt lat="46.033919993788004" lon="8.231797032058239">
        <ele>1320.98999</ele>
        <time>2015-03-28T12:50:46Z</time>
      </trkpt>
      <trkpt lat="46.033965004608035" lon="8.231899039819837">
        <ele>1317.619995</ele>
        <time>2015-03-28T12:51:04Z</time>
      </trkpt>
      <trkpt lat="46.033930974081159" lon="8.232004987075925">
        <ele>1314.740112</ele>
        <time>2015-03-28T12:51:18Z</time>
      </trkpt>
      <trkpt lat="46.033899961039424" lon="8.232100959867239">
        <ele>1311.380005</ele>
        <time>2015-03-28T12:51:33Z</time>
      </trkpt>
      <trkpt lat="46.033899039030075" lon="8.232115041464567">
        <ele>1310.410034</ele>
        <time>2015-03-28T12:51:35Z</time>
      </trkpt>
      <trkpt lat="46.033888980746269" lon="8.232169020920992">
        <ele>1308.969971</ele>
        <time>2015-03-28T12:51:53Z</time>
      </trkpt>
      <trkpt lat="46.033842964097857" lon="8.232261976227164">
        <ele>1306.089966</ele>
        <time>2015-03-28T12:52:10Z</time>
      </trkpt>
      <trkpt lat="46.033813962712884" lon="8.232283014804125">
        <ele>1305.610107</ele>
        <time>2015-03-28T12:52:31Z</time>
      </trkpt>
      <trkpt lat="46.033850004896522" lon="8.232335988432169">
        <ele>1302.23999</ele>
        <time>2015-03-28T12:52:46Z</time>
      </trkpt>
      <trkpt lat="46.033873977139592" lon="8.232373958453536">
        <ele>1301.280029</ele>
        <time>2015-03-28T12:52:53Z</time>
      </trkpt>
      <trkpt lat="46.033929968252778" lon="8.232535980641842">
        <ele>1299.3599850000001</ele>
        <time>2015-03-28T12:53:07Z</time>
      </trkpt>
      <trkpt lat="46.033914964646101" lon="8.232602030038834">
        <ele>1297.919922</ele>
        <time>2015-03-28T12:53:13Z</time>
      </trkpt>
      <trkpt lat="46.033871965482831" lon="8.232690962031484">
        <ele>1295.030029</ele>
        <time>2015-03-28T12:53:27Z</time>
      </trkpt>
      <trkpt lat="46.033810023218393" lon="8.232735972851515">
        <ele>1293.1099850000001</ele>
        <time>2015-03-28T12:53:40Z</time>
      </trkpt>
      <trkpt lat="46.033780016005039" lon="8.232763968408108">
        <ele>1292.630005</ele>
        <time>2015-03-28T12:53:44Z</time>
      </trkpt>
      <trkpt lat="46.033793007954955" lon="8.232825994491577">
        <ele>1291.1899410000001</ele>
        <time>2015-03-28T12:53:50Z</time>
      </trkpt>
      <trkpt lat="46.033686976879835" lon="8.232844015583396">
        <ele>1287.820068</ele>
        <time>2015-03-28T12:54:04Z</time>
      </trkpt>
      <trkpt lat="46.03369502350688" lon="8.232860025018454">
        <ele>1285.420044</ele>
        <time>2015-03-28T12:54:19Z</time>
      </trkpt>
      <trkpt lat="46.033664010465145" lon="8.232944011688232">
        <ele>1282.059937</ele>
        <time>2015-03-28T12:54:32Z</time>
      </trkpt>
      <trkpt lat="46.033677002415061" lon="8.23302598670125">
        <ele>1280.1298830000001</ele>
        <time>2015-03-28T12:54:42Z</time>
      </trkpt>
      <trkpt lat="46.033704997971654" lon="8.233181973919272">
        <ele>1277.7299800000001</ele>
        <time>2015-03-28T12:54:55Z</time>
      </trkpt>
      <trkpt lat="46.03376098908484" lon="8.233231008052826">
        <ele>1274.849976</ele>
        <time>2015-03-28T12:55:10Z</time>
      </trkpt>
      <trkpt lat="46.033765012398362" lon="8.233251040801406">
        <ele>1273.880005</ele>
        <time>2015-03-28T12:55:12Z</time>
      </trkpt>
      <trkpt lat="46.033765012398362" lon="8.233366040512919">
        <ele>1270.5198969999999</ele>
        <time>2015-03-28T12:55:27Z</time>
      </trkpt>
      <trkpt lat="46.033774986863136" lon="8.233407028019428">
        <ele>1270.040039</ele>
        <time>2015-03-28T12:55:30Z</time>
      </trkpt>
      <trkpt lat="46.033743973821402" lon="8.23347601108253">
        <ele>1269.080078</ele>
        <time>2015-03-28T12:55:44Z</time>
      </trkpt>
      <trkpt lat="46.03369502350688" lon="8.233699975535274">
        <ele>1266.1899410000001</ele>
        <time>2015-03-28T12:56:00Z</time>
      </trkpt>
      <trkpt lat="46.033689994364977" lon="8.233844982460141">
        <ele>1263.7899170000001</ele>
        <time>2015-03-28T12:56:12Z</time>
      </trkpt>
      <trkpt lat="46.033679014071822" lon="8.234137007966638">
        <ele>1261.8701169999999</ele>
        <time>2015-03-28T12:56:34Z</time>
      </trkpt>
      <trkpt lat="46.033593015745282" lon="8.234355021268129">
        <ele>1260.4300539999999</ele>
        <time>2015-03-28T12:56:54Z</time>
      </trkpt>
      <trkpt lat="46.033557979390025" lon="8.234582003206015">
        <ele>1257.540039</ele>
        <time>2015-03-28T12:57:14Z</time>
      </trkpt>
      <trkpt lat="46.033539036288857" lon="8.234801022335887">
        <ele>1254.179932</ele>
        <time>2015-03-28T12:57:32Z</time>
      </trkpt>
      <trkpt lat="46.03343996219337" lon="8.234862964600325">
        <ele>1250.8100589999999</ele>
        <time>2015-03-28T12:57:48Z</time>
      </trkpt>
      <trkpt lat="46.033406015485525" lon="8.234858019277453">
        <ele>1249.369995</ele>
        <time>2015-03-28T12:58:05Z</time>
      </trkpt>
      <trkpt lat="46.033341977745295" lon="8.234933959320188">
        <ele>1246.01001</ele>
        <time>2015-03-28T12:58:21Z</time>
      </trkpt>
      <trkpt lat="46.033279029652476" lon="8.234987016767263">
        <ele>1243.119995</ele>
        <time>2015-03-28T12:58:36Z</time>
      </trkpt>
      <trkpt lat="46.033257991075516" lon="8.235065974295139">
        <ele>1239.76001</ele>
        <time>2015-03-28T12:58:50Z</time>
      </trkpt>
      <trkpt lat="46.033254973590374" lon="8.235149960964918">
        <ele>1236.869995</ele>
        <time>2015-03-28T12:59:03Z</time>
      </trkpt>
      <trkpt lat="46.033211974427104" lon="8.235241994261742">
        <ele>1233.51001</ele>
        <time>2015-03-28T12:59:15Z</time>
      </trkpt>
      <trkpt lat="46.033166963607073" lon="8.235321035608649">
        <ele>1230.1400149999999</ele>
        <time>2015-03-28T12:59:29Z</time>
      </trkpt>
      <trkpt lat="46.033119019120932" lon="8.235397981479764">
        <ele>1227.73999</ele>
        <time>2015-03-28T12:59:43Z</time>
      </trkpt>
      <trkpt lat="46.033039977774024" lon="8.235506024211645">
        <ele>1224.380005</ele>
        <time>2015-03-28T12:59:59Z</time>
      </trkpt>
      <trkpt lat="46.032962026074529" lon="8.235581964254379">
        <ele>1221.48999</ele>
        <time>2015-03-28T13:00:17Z</time>
      </trkpt>
      <trkpt lat="46.032946016639471" lon="8.235679026693106">
        <ele>1218.6099850000001</ele>
        <time>2015-03-28T13:00:29Z</time>
      </trkpt>
      <trkpt lat="46.032935958355665" lon="8.23575496673584">
        <ele>1215.23999</ele>
        <time>2015-03-28T13:00:44Z</time>
      </trkpt>
      <trkpt lat="46.03292497806251" lon="8.235867032781243">
        <ele>1212.3599850000001</ele>
        <time>2015-03-28T13:00:59Z</time>
      </trkpt>
      <trkpt lat="46.032926989719272" lon="8.236064007505775">
        <ele>1209</ele>
        <time>2015-03-28T13:01:16Z</time>
      </trkpt>
      <trkpt lat="46.032820958644152" lon="8.236240027472377">
        <ele>1206.1099850000001</ele>
        <time>2015-03-28T13:01:35Z</time>
      </trkpt>
      <trkpt lat="46.032777959480882" lon="8.236323008313775">
        <ele>1206.589966</ele>
        <time>2015-03-28T13:01:42Z</time>
      </trkpt>
      <trkpt lat="46.032746024429798" lon="8.236438008025289">
        <ele>1208.51001</ele>
        <time>2015-03-28T13:01:56Z</time>
      </trkpt>
      <trkpt lat="46.032745018601418" lon="8.236550996080041">
        <ele>1208.030029</ele>
        <time>2015-03-28T13:02:07Z</time>
      </trkpt>
      <trkpt lat="46.032769996672869" lon="8.236680999398232">
        <ele>1209</ele>
        <time>2015-03-28T13:02:17Z</time>
      </trkpt>
      <trkpt lat="46.032692966982722" lon="8.236940000206232">
        <ele>1207.5500489999999</ele>
        <time>2015-03-28T13:02:37Z</time>
      </trkpt>
      <trkpt lat="46.03270897641778" lon="8.237235965207219">
        <ele>1206.589966</ele>
        <time>2015-03-28T13:02:59Z</time>
      </trkpt>
      <trkpt lat="46.032822970300913" lon="8.237477028742433">
        <ele>1204.190063</ele>
        <time>2015-03-28T13:03:18Z</time>
      </trkpt>
      <trkpt lat="46.032833028584719" lon="8.237525979056954">
        <ele>1203.709961</ele>
        <time>2015-03-28T13:03:22Z</time>
      </trkpt>
      <trkpt lat="46.032844008877873" lon="8.237698981538415">
        <ele>1201.790039</ele>
        <time>2015-03-28T13:03:35Z</time>
      </trkpt>
      <trkpt lat="46.032836968079209" lon="8.237892016768456">
        <ele>1198.420044</ele>
        <time>2015-03-28T13:03:50Z</time>
      </trkpt>
      <trkpt lat="46.032823976129293" lon="8.238062001764774">
        <ele>1195.0600589999999</ele>
        <time>2015-03-28T13:04:06Z</time>
      </trkpt>
      <trkpt lat="46.032774019986391" lon="8.238165015354753">
        <ele>1192.650024</ele>
        <time>2015-03-28T13:04:22Z</time>
      </trkpt>
      <trkpt lat="46.032761028036475" lon="8.238192005082965">
        <ele>1191.690063</ele>
        <time>2015-03-28T13:04:25Z</time>
      </trkpt>
      <trkpt lat="46.032709982246161" lon="8.238342963159084">
        <ele>1188.329956</ele>
        <time>2015-03-28T13:04:40Z</time>
      </trkpt>
      <trkpt lat="46.032681986689568" lon="8.238364001736045">
        <ele>1187.849976</ele>
        <time>2015-03-28T13:04:43Z</time>
      </trkpt>
      <trkpt lat="46.032565981149673" lon="8.238469026982784">
        <ele>1184.4799800000001</ele>
        <time>2015-03-28T13:04:56Z</time>
      </trkpt>
      <trkpt lat="46.032359031960368" lon="8.238624008372426">
        <ele>1183.0399170000001</ele>
        <time>2015-03-28T13:05:16Z</time>
      </trkpt>
      <trkpt lat="46.032289965078235" lon="8.238701038062573">
        <ele>1182.5600589999999</ele>
        <time>2015-03-28T13:05:30Z</time>
      </trkpt>
      <trkpt lat="46.032275967299938" lon="8.238706989213824">
        <ele>1182.080078</ele>
        <time>2015-03-28T13:05:48Z</time>
      </trkpt>
      <trkpt lat="46.032215030863881" lon="8.238746970891953">
        <ele>1181.599976</ele>
        <time>2015-03-28T13:06:06Z</time>
      </trkpt>
      <trkpt lat="46.032157028093934" lon="8.238749988377094">
        <ele>1178.709961</ele>
        <time>2015-03-28T13:07:09Z</time>
      </trkpt>
      <trkpt lat="46.032126015052199" lon="8.238818971440196">
        <ele>1175.829956</ele>
        <time>2015-03-28T13:07:23Z</time>
      </trkpt>
      <trkpt lat="46.032112017273903" lon="8.238926008343697">
        <ele>1172.950073</ele>
        <time>2015-03-28T13:07:36Z</time>
      </trkpt>
      <trkpt lat="46.032083015888929" lon="8.238984011113644">
        <ele>1169.580078</ele>
        <time>2015-03-28T13:07:47Z</time>
      </trkpt>
      <trkpt lat="46.032086033374071" lon="8.238994991406798">
        <ele>1169.580078</ele>
        <time>2015-03-28T13:07:48Z</time>
      </trkpt>
      <trkpt lat="46.031951000913978" lon="8.23912600055337">
        <ele>1166.219971</ele>
        <time>2015-03-28T13:08:06Z</time>
      </trkpt>
      <trkpt lat="46.031895009800792" lon="8.239248963072896">
        <ele>1162.849976</ele>
        <time>2015-03-28T13:08:21Z</time>
      </trkpt>
      <trkpt lat="46.031856033951044" lon="8.239343008026481">
        <ele>1159.969971</ele>
        <time>2015-03-28T13:08:34Z</time>
      </trkpt>
      <trkpt lat="46.031844969838858" lon="8.239377960562706">
        <ele>1158.530029</ele>
        <time>2015-03-28T13:08:38Z</time>
      </trkpt>
      <trkpt lat="46.031818985939026" lon="8.239435963332653">
        <ele>1157.5600589999999</ele>
        <time>2015-03-28T13:08:43Z</time>
      </trkpt>
      <trkpt lat="46.031803982332349" lon="8.23946999385953">
        <ele>1157.080078</ele>
        <time>2015-03-28T13:08:46Z</time>
      </trkpt>
      <trkpt lat="46.031770035624504" lon="8.23953403159976">
        <ele>1157.080078</ele>
        <time>2015-03-28T13:08:52Z</time>
      </trkpt>
      <trkpt lat="46.031744973734021" lon="8.239566972479224">
        <ele>1156.119995</ele>
        <time>2015-03-28T13:08:56Z</time>
      </trkpt>
      <trkpt lat="46.031707003712654" lon="8.239824967458844">
        <ele>1155.6400149999999</ele>
        <time>2015-03-28T13:09:14Z</time>
      </trkpt>
      <trkpt lat="46.031661992892623" lon="8.240064019337297">
        <ele>1153.719971</ele>
        <time>2015-03-28T13:09:34Z</time>
      </trkpt>
      <trkpt lat="46.031516985967755" lon="8.240383034572005">
        <ele>1152.280029</ele>
        <time>2015-03-28T13:09:58Z</time>
      </trkpt>
      <trkpt lat="46.031508017331362" lon="8.240389991551638">
        <ele>1152.280029</ele>
        <time>2015-03-28T13:09:59Z</time>
      </trkpt>
      <trkpt lat="46.031351024284959" lon="8.240585960447788">
        <ele>1149.3900149999999</ele>
        <time>2015-03-28T13:10:19Z</time>
      </trkpt>
      <trkpt lat="46.031229989603162" lon="8.240728033706546">
        <ele>1148.4300539999999</ele>
        <time>2015-03-28T13:10:34Z</time>
      </trkpt>
      <trkpt lat="46.031058998778462" lon="8.240892989560962">
        <ele>1150.349976</ele>
        <time>2015-03-28T13:10:56Z</time>
      </trkpt>
      <trkpt lat="46.030914997681975" lon="8.241036990657449">
        <ele>1151.799927</ele>
        <time>2015-03-28T13:11:17Z</time>
      </trkpt>
      <trkpt lat="46.030784994363785" lon="8.241136986762285">
        <ele>1151.799927</ele>
        <time>2015-03-28T13:11:38Z</time>
      </trkpt>
      <trkpt lat="46.030663959681988" lon="8.241195995360613">
        <ele>1152.280029</ele>
        <time>2015-03-28T13:11:54Z</time>
      </trkpt>
      <trkpt lat="46.030545020475984" lon="8.241229020059109">
        <ele>1152.76001</ele>
        <time>2015-03-28T13:12:10Z</time>
      </trkpt>
      <trkpt lat="46.030482994392514" lon="8.241208987310529">
        <ele>1153.719971</ele>
        <time>2015-03-28T13:12:19Z</time>
      </trkpt>
      <trkpt lat="46.030342010781169" lon="8.241251986473799">
        <ele>1156.599976</ele>
        <time>2015-03-28T13:12:38Z</time>
      </trkpt>
      <trkpt lat="46.030131038278341" lon="8.241477040573955">
        <ele>1157.5600589999999</ele>
        <time>2015-03-28T13:13:01Z</time>
      </trkpt>
      <trkpt lat="46.030112011358142" lon="8.241492966189981">
        <ele>1157.5600589999999</ele>
        <time>2015-03-28T13:13:26Z</time>
      </trkpt>
      <trkpt lat="46.030178982764482" lon="8.241469999775291">
        <ele>1155.6400149999999</ele>
        <time>2015-03-28T13:14:58Z</time>
      </trkpt>
      <trkpt lat="46.030395990237594" lon="8.241357011720538">
        <ele>1153.719971</ele>
        <time>2015-03-28T13:15:17Z</time>
      </trkpt>
      <trkpt lat="46.030445024371147" lon="8.241261038929224">
        <ele>1150.839966</ele>
        <time>2015-03-28T13:15:32Z</time>
      </trkpt>
      <trkpt lat="46.030388027429581" lon="8.241166993975639">
        <ele>1149.3900149999999</ele>
        <time>2015-03-28T13:15:50Z</time>
      </trkpt>
      <trkpt lat="46.030372017994523" lon="8.241189960390329">
        <ele>1149.3900149999999</ele>
        <time>2015-03-28T13:16:35Z</time>
      </trkpt>
      <trkpt lat="46.030432032421231" lon="8.24121099896729">
        <ele>1149.3900149999999</ele>
        <time>2015-03-28T13:16:48Z</time>
      </trkpt>
      <trkpt lat="46.03045298717916" lon="8.241271013393998">
        <ele>1151.799927</ele>
        <time>2015-03-28T13:17:02Z</time>
      </trkpt>
      <trkpt lat="46.030362965539098" lon="8.241324992850423">
        <ele>1153.23999</ele>
        <time>2015-03-28T13:17:17Z</time>
      </trkpt>
      <trkpt lat="46.030309991911054" lon="8.241364974528551">
        <ele>1153.719971</ele>
        <time>2015-03-28T13:17:23Z</time>
      </trkpt>
      <trkpt lat="46.030127014964819" lon="8.241491038352251">
        <ele>1155.6400149999999</ele>
        <time>2015-03-28T13:17:43Z</time>
      </trkpt>
      <trkpt lat="46.030029030516744" lon="8.241508975625038">
        <ele>1158.530029</ele>
        <time>2015-03-28T13:18:02Z</time>
      </trkpt>
      <trkpt lat="46.029876982793212" lon="8.241626992821693">
        <ele>1159.48999</ele>
        <time>2015-03-28T13:18:24Z</time>
      </trkpt>
      <trkpt lat="46.02987103164196" lon="8.241682983934879">
        <ele>1158.0500489999999</ele>
        <time>2015-03-28T13:18:29Z</time>
      </trkpt>
      <trkpt lat="46.029780004173517" lon="8.24179102666676">
        <ele>1155.160034</ele>
        <time>2015-03-28T13:18:45Z</time>
      </trkpt>
      <trkpt lat="46.029708003625274" lon="8.241702010855079">
        <ele>1151.799927</ele>
        <time>2015-03-28T13:18:59Z</time>
      </trkpt>
      <trkpt lat="46.029650000855327" lon="8.241717014461756">
        <ele>1148.9099120000001</ele>
        <time>2015-03-28T13:19:11Z</time>
      </trkpt>
      <trkpt lat="46.029605995863676" lon="8.241818016394973">
        <ele>1145.5500489999999</ele>
        <time>2015-03-28T13:19:29Z</time>
      </trkpt>
      <trkpt lat="46.029558973386884" lon="8.241890016943216">
        <ele>1142.1800539999999</ele>
        <time>2015-03-28T13:19:46Z</time>
      </trkpt>
      <trkpt lat="46.029500970616937" lon="8.242023037746549">
        <ele>1138.820068</ele>
        <time>2015-03-28T13:20:03Z</time>
      </trkpt>
      <trkpt lat="46.029450008645654" lon="8.242274997755885">
        <ele>1136.420044</ele>
        <time>2015-03-28T13:20:23Z</time>
      </trkpt>
      <trkpt lat="46.02946300059557" lon="8.242374993860722">
        <ele>1134.01001</ele>
        <time>2015-03-28T13:20:36Z</time>
      </trkpt>
      <trkpt lat="46.029496025294065" lon="8.242469960823655">
        <ele>1132.5699460000001</ele>
        <time>2015-03-28T13:20:44Z</time>
      </trkpt>
      <trkpt lat="46.029537012800574" lon="8.242748994380236">
        <ele>1130.650024</ele>
        <time>2015-03-28T13:21:03Z</time>
      </trkpt>
      <trkpt lat="46.029637008905411" lon="8.242911016568542">
        <ele>1128.7299800000001</ele>
        <time>2015-03-28T13:21:21Z</time>
      </trkpt>
      <trkpt lat="46.029642038047314" lon="8.243000032380223">
        <ele>1125.3599850000001</ele>
        <time>2015-03-28T13:21:39Z</time>
      </trkpt>
      <trkpt lat="46.029665004462004" lon="8.243091981858015">
        <ele>1122.959961</ele>
        <time>2015-03-28T13:21:52Z</time>
      </trkpt>
      <trkpt lat="46.029600966721773" lon="8.243160964921117">
        <ele>1121.5200199999999</ele>
        <time>2015-03-28T13:22:04Z</time>
      </trkpt>
      <trkpt lat="46.02965502999723" lon="8.243198012933135">
        <ele>1118.150024</ele>
        <time>2015-03-28T13:22:20Z</time>
      </trkpt>
      <trkpt lat="46.029610019177198" lon="8.243226008489728">
        <ele>1114.790039</ele>
        <time>2015-03-28T13:22:32Z</time>
      </trkpt>
      <trkpt lat="46.029533995315433" lon="8.243246963247657">
        <ele>1111.900024</ele>
        <time>2015-03-28T13:22:46Z</time>
      </trkpt>
      <trkpt lat="46.029494013637304" lon="8.243261966854334">
        <ele>1109.0200199999999</ele>
        <time>2015-03-28T13:23:00Z</time>
      </trkpt>
      <trkpt lat="46.029524020850658" lon="8.24336196295917">
        <ele>1105.650024</ele>
        <time>2015-03-28T13:23:14Z</time>
      </trkpt>
      <trkpt lat="46.029508011415601" lon="8.243400016799569">
        <ele>1102.7700199999999</ele>
        <time>2015-03-28T13:23:28Z</time>
      </trkpt>
      <trkpt lat="46.029426036402583" lon="8.243378978222609">
        <ele>1099.8900149999999</ele>
        <time>2015-03-28T13:23:44Z</time>
      </trkpt>
      <trkpt lat="46.029453026130795" lon="8.243478974327445">
        <ele>1096.5200199999999</ele>
        <time>2015-03-28T13:23:58Z</time>
      </trkpt>
      <trkpt lat="46.029447996988893" lon="8.243570001795888">
        <ele>1093.6400149999999</ele>
        <time>2015-03-28T13:24:14Z</time>
      </trkpt>
      <trkpt lat="46.029382031410933" lon="8.243513004854322">
        <ele>1091.7100829999999</ele>
        <time>2015-03-28T13:24:33Z</time>
      </trkpt>
      <trkpt lat="46.029383037239313" lon="8.243501018732786">
        <ele>1091.2299800000001</ele>
        <time>2015-03-28T13:24:58Z</time>
      </trkpt>
      <trkpt lat="46.029344983398914" lon="8.24348702095449">
        <ele>1090.2700199999999</ele>
        <time>2015-03-28T13:25:42Z</time>
      </trkpt>
      <trkpt lat="46.029256973415613" lon="8.243447039276362">
        <ele>1086.910034</ele>
        <time>2015-03-28T13:25:59Z</time>
      </trkpt>
      <trkpt lat="46.029176004230976" lon="8.243348971009255">
        <ele>1084.0200199999999</ele>
        <time>2015-03-28T13:26:14Z</time>
      </trkpt>
      <trkpt lat="46.02914297953248" lon="8.243313012644649">
        <ele>1082.580078</ele>
        <time>2015-03-28T13:26:19Z</time>
      </trkpt>
      <trkpt lat="46.029052035883069" lon="8.243141015991569">
        <ele>1080.1800539999999</ele>
        <time>2015-03-28T13:26:34Z</time>
      </trkpt>
      <trkpt lat="46.029020017012954" lon="8.243068009614945">
        <ele>1080.1800539999999</ele>
        <time>2015-03-28T13:26:39Z</time>
      </trkpt>
      <trkpt lat="46.028932007029653" lon="8.243003971874714">
        <ele>1076.8100589999999</ele>
        <time>2015-03-28T13:26:58Z</time>
      </trkpt>
      <trkpt lat="46.028872998431325" lon="8.242923002690077">
        <ele>1074.410034</ele>
        <time>2015-03-28T13:27:19Z</time>
      </trkpt>
      <trkpt lat="46.028839973732829" lon="8.2428889721632">
        <ele>1072.48999</ele>
        <time>2015-03-28T13:27:38Z</time>
      </trkpt>
      <trkpt lat="46.028790017589927" lon="8.242856031283736">
        <ele>1070.080078</ele>
        <time>2015-03-28T13:27:52Z</time>
      </trkpt>
      <trkpt lat="46.028783982619643" lon="8.242943035438657">
        <ele>1066.719971</ele>
        <time>2015-03-28T13:28:06Z</time>
      </trkpt>
      <trkpt lat="46.028709970414639" lon="8.242964996024966">
        <ele>1063.8400879999999</ele>
        <time>2015-03-28T13:28:19Z</time>
      </trkpt>
      <trkpt lat="46.028659008443356" lon="8.242869023233652">
        <ele>1061.429932</ele>
        <time>2015-03-28T13:28:30Z</time>
      </trkpt>
      <trkpt lat="46.028633024543524" lon="8.242738014087081">
        <ele>1059.030029</ele>
        <time>2015-03-28T13:28:46Z</time>
      </trkpt>
      <trkpt lat="46.028597988188267" lon="8.242812026292086">
        <ele>1056.150024</ele>
        <time>2015-03-28T13:28:59Z</time>
      </trkpt>
      <trkpt lat="46.028592037037015" lon="8.242959966883063">
        <ele>1054.219971</ele>
        <time>2015-03-28T13:29:15Z</time>
      </trkpt>
      <trkpt lat="46.028578039258718" lon="8.24303800240159">
        <ele>1051.8199460000001</ele>
        <time>2015-03-28T13:29:27Z</time>
      </trkpt>
      <trkpt lat="46.028576027601957" lon="8.243076978251338">
        <ele>1050.380005</ele>
        <time>2015-03-28T13:29:41Z</time>
      </trkpt>
      <trkpt lat="46.028554989024997" lon="8.243096005171537">
        <ele>1049.420044</ele>
        <time>2015-03-28T13:30:05Z</time>
      </trkpt>
      <trkpt lat="46.028535962104797" lon="8.243135986849666">
        <ele>1047.48999</ele>
        <time>2015-03-28T13:30:21Z</time>
      </trkpt>
      <trkpt lat="46.02852095849812" lon="8.243185020983219">
        <ele>1045.089966</ele>
        <time>2015-03-28T13:30:38Z</time>
      </trkpt>
      <trkpt lat="46.028493968769908" lon="8.243271019309759">
        <ele>1042.6899410000001</ele>
        <time>2015-03-28T13:30:55Z</time>
      </trkpt>
      <trkpt lat="46.028512995690107" lon="8.243373027071357">
        <ele>1039.799927</ele>
        <time>2015-03-28T13:31:09Z</time>
      </trkpt>
      <trkpt lat="46.028477037325501" lon="8.243499007076025">
        <ele>1036.920044</ele>
        <time>2015-03-28T13:31:26Z</time>
      </trkpt>
      <trkpt lat="46.028379974886775" lon="8.243427006527782">
        <ele>1034.5200199999999</ele>
        <time>2015-03-28T13:31:41Z</time>
      </trkpt>
      <trkpt lat="46.02830596268177" lon="8.243340002372861">
        <ele>1032.1099850000001</ele>
        <time>2015-03-28T13:31:53Z</time>
      </trkpt>
      <trkpt lat="46.028213007375598" lon="8.243184015154839">
        <ele>1029.7100829999999</ele>
        <time>2015-03-28T13:32:07Z</time>
      </trkpt>
      <trkpt lat="46.028230022639036" lon="8.242976982146502">
        <ele>1027.790039</ele>
        <time>2015-03-28T13:32:23Z</time>
      </trkpt>
      <trkpt lat="46.028227005153894" lon="8.242895007133484">
        <ele>1024.420044</ele>
        <time>2015-03-28T13:32:38Z</time>
      </trkpt>
      <trkpt lat="46.028210995718837" lon="8.242794005200267">
        <ele>1021.540039</ele>
        <time>2015-03-28T13:32:54Z</time>
      </trkpt>
      <trkpt lat="46.028214013203979" lon="8.242710018530488">
        <ele>1020.580017</ele>
        <time>2015-03-28T13:33:09Z</time>
      </trkpt>
      <trkpt lat="46.028212001547217" lon="8.242621002718806">
        <ele>1018.650024</ele>
        <time>2015-03-28T13:33:33Z</time>
      </trkpt>
      <trkpt lat="46.02817595936358" lon="8.24265000410378">
        <ele>1015.77002</ele>
        <time>2015-03-28T13:33:56Z</time>
      </trkpt>
      <trkpt lat="46.02810999378562" lon="8.242644974961877">
        <ele>1012.410034</ele>
        <time>2015-03-28T13:34:11Z</time>
      </trkpt>
      <trkpt lat="46.028083004057407" lon="8.242572974413633">
        <ele>1010.959961</ele>
        <time>2015-03-28T13:34:18Z</time>
      </trkpt>
      <trkpt lat="46.028049979358912" lon="8.24256501160562">
        <ele>1007.599976</ele>
        <time>2015-03-28T13:34:35Z</time>
      </trkpt>
      <trkpt lat="46.028052996844053" lon="8.242485970258713">
        <ele>1005.679993</ele>
        <time>2015-03-28T13:34:50Z</time>
      </trkpt>
      <trkpt lat="46.028009997680783" lon="8.242407012730837">
        <ele>1002.789978</ele>
        <time>2015-03-28T13:35:02Z</time>
      </trkpt>
      <trkpt lat="46.027973033487797" lon="8.242364013567567">
        <ele>999.42999299999997</ele>
        <time>2015-03-28T13:35:16Z</time>
      </trkpt>
      <trkpt lat="46.027930034324527" lon="8.242312967777252">
        <ele>997.02002000000005</ele>
        <time>2015-03-28T13:35:28Z</time>
      </trkpt>
      <trkpt lat="46.02789600379765" lon="8.242239961400628">
        <ele>993.65997300000004</ele>
        <time>2015-03-28T13:35:42Z</time>
      </trkpt>
      <trkpt lat="46.027893992140889" lon="8.242270974442363">
        <ele>992.69995100000006</ele>
        <time>2015-03-28T13:35:47Z</time>
      </trkpt>
      <trkpt lat="46.027898015454412" lon="8.242342974990606">
        <ele>991.74005099999999</ele>
        <time>2015-03-28T13:35:52Z</time>
      </trkpt>
      <trkpt lat="46.027873959392309" lon="8.24239200912416">
        <ele>988.37005599999998</ele>
        <time>2015-03-28T13:36:04Z</time>
      </trkpt>
      <trkpt lat="46.027858033776283" lon="8.242406006902456">
        <ele>987.410034</ele>
        <time>2015-03-28T13:36:09Z</time>
      </trkpt>
      <trkpt lat="46.02787597104907" lon="8.242488987743855">
        <ele>985.01000999999997</ele>
        <time>2015-03-28T13:36:26Z</time>
      </trkpt>
      <trkpt lat="46.027862979099154" lon="8.242645980790258">
        <ele>982.11999500000002</ele>
        <time>2015-03-28T13:36:42Z</time>
      </trkpt>
      <trkpt lat="46.027859039604664" lon="8.242676993831992">
        <ele>981.15997300000004</ele>
        <time>2015-03-28T13:36:46Z</time>
      </trkpt>
      <trkpt lat="46.027856022119522" lon="8.242687974125147">
        <ele>978.28002900000001</ele>
        <time>2015-03-28T13:37:00Z</time>
      </trkpt>
      <trkpt lat="46.027830960229039" lon="8.242637012153864">
        <ele>977.32000700000003</ele>
        <time>2015-03-28T13:37:04Z</time>
      </trkpt>
      <trkpt lat="46.027792990207672" lon="8.242530981078744">
        <ele>976.35998500000005</ele>
        <time>2015-03-28T13:37:10Z</time>
      </trkpt>
      <trkpt lat="46.027759965509176" lon="8.242450011894107">
        <ele>975.88000499999998</ele>
        <time>2015-03-28T13:37:14Z</time>
      </trkpt>
      <trkpt lat="46.027670027688146" lon="8.242313973605633">
        <ele>976.35998500000005</ele>
        <time>2015-03-28T13:37:25Z</time>
      </trkpt>
      <trkpt lat="46.027543963864446" lon="8.242100989446044">
        <ele>975.39001499999995</ele>
        <time>2015-03-28T13:37:43Z</time>
      </trkpt>
      <trkpt lat="46.027424018830061" lon="8.242009039968252">
        <ele>972.02996800000005</ele>
        <time>2015-03-28T13:37:59Z</time>
      </trkpt>
      <trkpt lat="46.027357969433069" lon="8.242040975019336">
        <ele>970.10998500000005</ele>
        <time>2015-03-28T13:38:18Z</time>
      </trkpt>
      <trkpt lat="46.027341959998012" lon="8.242124961689115">
        <ele>967.21997099999999</ele>
        <time>2015-03-28T13:38:31Z</time>
      </trkpt>
      <trkpt lat="46.02731698192656" lon="8.242167960852385">
        <ele>965.78002900000001</ele>
        <time>2015-03-28T13:38:35Z</time>
      </trkpt>
      <trkpt lat="46.027212962508202" lon="8.242209032177925">
        <ele>962.90002400000003</ele>
        <time>2015-03-28T13:38:53Z</time>
      </trkpt>
      <trkpt lat="46.027149008587003" lon="8.242176007479429">
        <ele>960.01000999999997</ele>
        <time>2015-03-28T13:39:04Z</time>
      </trkpt>
      <trkpt lat="46.027095029130578" lon="8.24209202080965">
        <ele>956.65002400000003</ele>
        <time>2015-03-28T13:39:18Z</time>
      </trkpt>
      <trkpt lat="46.027088994160295" lon="8.241952965036035">
        <ele>953.28002900000001</ele>
        <time>2015-03-28T13:39:33Z</time>
      </trkpt>
      <trkpt lat="46.026982041075826" lon="8.241825979202986">
        <ele>950.40002400000003</ele>
        <time>2015-03-28T13:39:46Z</time>
      </trkpt>
      <trkpt lat="46.026933006942272" lon="8.241684995591641">
        <ele>949.44000200000005</ele>
        <time>2015-03-28T13:40:00Z</time>
      </trkpt>
      <trkpt lat="46.026923032477498" lon="8.241650965064764">
        <ele>948.47997999999995</ele>
        <time>2015-03-28T13:40:18Z</time>
      </trkpt>
      <trkpt lat="46.026926971971989" lon="8.241606960073113">
        <ele>948.00006099999996</ele>
        <time>2015-03-28T13:43:08Z</time>
      </trkpt>
      <trkpt lat="46.026941975578666" lon="8.241569995880127">
        <ele>945.10998500000005</ele>
        <time>2015-03-28T13:45:55Z</time>
      </trkpt>
      <trkpt lat="46.026911968365312" lon="8.24151199311018">
        <ele>942.22997999999995</ele>
        <time>2015-03-28T13:46:12Z</time>
      </trkpt>
      <trkpt lat="46.026892019435763" lon="8.241399005055428">
        <ele>939.34997599999997</ele>
        <time>2015-03-28T13:46:47Z</time>
      </trkpt>
      <trkpt lat="46.026895036920905" lon="8.241333961486816">
        <ele>935.97997999999995</ele>
        <time>2015-03-28T13:47:11Z</time>
      </trkpt>
      <trkpt lat="46.026945998892188" lon="8.241285011172295">
        <ele>935.01995799999997</ele>
        <time>2015-03-28T13:47:20Z</time>
      </trkpt>
      <trkpt lat="46.027005007490516" lon="8.241170011460781">
        <ele>931.17004399999996</ele>
        <time>2015-03-28T13:47:36Z</time>
      </trkpt>
      <trkpt lat="46.027020011097193" lon="8.241070015355945">
        <ele>927.80999799999995</ele>
        <time>2015-03-28T13:47:48Z</time>
      </trkpt>
      <trkpt lat="46.026991009712219" lon="8.241056017577648">
        <ele>924.93005400000004</ele>
        <time>2015-03-28T13:48:03Z</time>
      </trkpt>
      <trkpt lat="46.027023028582335" lon="8.240988040342927">
        <ele>922.04003899999998</ele>
        <time>2015-03-28T13:48:20Z</time>
      </trkpt>
      <trkpt lat="46.026969971135259" lon="8.240931965410709">
        <ele>918.67999299999997</ele>
        <time>2015-03-28T13:48:32Z</time>
      </trkpt>
      <trkpt lat="46.026976006105542" lon="8.240890977904201">
        <ele>915.30999799999995</ele>
        <time>2015-03-28T13:48:50Z</time>
      </trkpt>
      <trkpt lat="46.026895036920905" lon="8.240842027589679">
        <ele>912.43005400000004</ele>
        <time>2015-03-28T13:49:02Z</time>
      </trkpt>
      <trkpt lat="46.026854971423745" lon="8.240796010941267">
        <ele>909.05999799999995</ele>
        <time>2015-03-28T13:49:19Z</time>
      </trkpt>
      <trkpt lat="46.026727985590696" lon="8.240900030359626">
        <ele>906.17999299999997</ele>
        <time>2015-03-28T13:49:37Z</time>
      </trkpt>
      <trkpt lat="46.026677023619413" lon="8.240806991234422">
        <ele>902.82000700000003</ele>
        <time>2015-03-28T13:49:51Z</time>
      </trkpt>
      <trkpt lat="46.026715999469161" lon="8.240740019828081">
        <ele>899.93005400000004</ele>
        <time>2015-03-28T13:50:03Z</time>
      </trkpt>
      <trkpt lat="46.026625977829099" lon="8.240670030936599">
        <ele>897.04998799999998</ele>
        <time>2015-03-28T13:50:21Z</time>
      </trkpt>
      <trkpt lat="46.0266949608922" lon="8.240563999861479">
        <ele>893.67999299999997</ele>
        <time>2015-03-28T13:50:37Z</time>
      </trkpt>
      <trkpt lat="46.026779031381011" lon="8.240455035120249">
        <ele>890.32000700000003</ele>
        <time>2015-03-28T13:50:55Z</time>
      </trkpt>
      <trkpt lat="46.026720022782683" lon="8.240412035956979">
        <ele>887.43005400000004</ele>
        <time>2015-03-28T13:51:10Z</time>
      </trkpt>
      <trkpt lat="46.026740977540612" lon="8.240328971296549">
        <ele>884.54998799999998</ele>
        <time>2015-03-28T13:51:24Z</time>
      </trkpt>
      <trkpt lat="46.026646010577679" lon="8.240300975739956">
        <ele>881.18994099999998</ele>
        <time>2015-03-28T13:51:41Z</time>
      </trkpt>
      <trkpt lat="46.026603011414409" lon="8.240252025425434">
        <ele>879.25994900000001</ele>
        <time>2015-03-28T13:51:48Z</time>
      </trkpt>
      <trkpt lat="46.02656596340239" lon="8.240285972133279">
        <ele>877.34002699999996</ele>
        <time>2015-03-28T13:51:57Z</time>
      </trkpt>
      <trkpt lat="46.026530005037785" lon="8.240295024588704">
        <ele>876.85998500000005</ele>
        <time>2015-03-28T13:52:01Z</time>
      </trkpt>
      <trkpt lat="46.02639002725482" lon="8.240210032090545">
        <ele>873.97997999999995</ele>
        <time>2015-03-28T13:52:18Z</time>
      </trkpt>
      <trkpt lat="46.026374017819762" lon="8.240248002111912">
        <ele>871.089966</ele>
        <time>2015-03-28T13:52:32Z</time>
      </trkpt>
      <trkpt lat="46.026349039748311" lon="8.240208020433784">
        <ele>868.68994099999998</ele>
        <time>2015-03-28T13:52:46Z</time>
      </trkpt>
      <trkpt lat="46.02630696259439" lon="8.240214977413416">
        <ele>867.73004200000003</ele>
        <time>2015-03-28T13:52:53Z</time>
      </trkpt>
      <trkpt lat="46.026172013953328" lon="8.240229981020093">
        <ele>868.21002199999998</ele>
        <time>2015-03-28T13:53:04Z</time>
      </trkpt>
      <trkpt lat="46.026050979271531" lon="8.240199973806739">
        <ele>864.84002699999996</ele>
        <time>2015-03-28T13:53:19Z</time>
      </trkpt>
      <trkpt lat="46.025985013693571" lon="8.240184970200062">
        <ele>863.40002400000003</ele>
        <time>2015-03-28T13:53:24Z</time>
      </trkpt>
      <trkpt lat="46.025879988446832" lon="8.240168960765004">
        <ele>861.47997999999995</ele>
        <time>2015-03-28T13:53:40Z</time>
      </trkpt>
      <trkpt lat="46.025837995111942" lon="8.240096038207412">
        <ele>858.589966</ele>
        <time>2015-03-28T13:53:54Z</time>
      </trkpt>
      <trkpt lat="46.025821985676885" lon="8.239984977990389">
        <ele>855.23004200000003</ele>
        <time>2015-03-28T13:54:07Z</time>
      </trkpt>
      <trkpt lat="46.02583397179842" lon="8.239872995764017">
        <ele>851.86999500000002</ele>
        <time>2015-03-28T13:54:21Z</time>
      </trkpt>
      <trkpt lat="46.025849981233478" lon="8.239789009094238">
        <ele>848.97997999999995</ele>
        <time>2015-03-28T13:54:33Z</time>
      </trkpt>
      <trkpt lat="46.025793990120292" lon="8.239731006324291">
        <ele>846.10003700000004</ele>
        <time>2015-03-28T13:54:47Z</time>
      </trkpt>
      <trkpt lat="46.025817962363362" lon="8.239654982462525">
        <ele>842.73004200000003</ele>
        <time>2015-03-28T13:55:01Z</time>
      </trkpt>
      <trkpt lat="46.025854004547" lon="8.239575019106269">
        <ele>839.84997599999997</ele>
        <time>2015-03-28T13:55:09Z</time>
      </trkpt>
      <trkpt lat="46.025957018136978" lon="8.239518022164702">
        <ele>836.47997999999995</ele>
        <time>2015-03-28T13:55:25Z</time>
      </trkpt>
      <trkpt lat="46.025942014530301" lon="8.239465970546007">
        <ele>833.11999500000002</ele>
        <time>2015-03-28T13:55:38Z</time>
      </trkpt>
      <trkpt lat="46.025851992890239" lon="8.239505030214787">
        <ele>830.23999000000003</ele>
        <time>2015-03-28T13:55:54Z</time>
      </trkpt>
      <trkpt lat="46.025718972086906" lon="8.239498995244503">
        <ele>827.830017</ele>
        <time>2015-03-28T13:56:07Z</time>
      </trkpt>
      <trkpt lat="46.025591986253858" lon="8.23944702744484">
        <ele>824.47003199999995</ele>
        <time>2015-03-28T13:56:22Z</time>
      </trkpt>
      <trkpt lat="46.025598021224141" lon="8.239381983876228">
        <ele>823.98999000000003</ele>
        <time>2015-03-28T13:56:27Z</time>
      </trkpt>
      <trkpt lat="46.025727018713951" lon="8.239252986386418">
        <ele>821.580017</ele>
        <time>2015-03-28T13:56:46Z</time>
      </trkpt>
      <trkpt lat="46.025786027312279" lon="8.239175034686923">
        <ele>818.70001200000002</ele>
        <time>2015-03-28T13:56:59Z</time>
      </trkpt>
      <trkpt lat="46.025830032303929" lon="8.239090964198113">
        <ele>815.34002699999996</ele>
        <time>2015-03-28T13:57:16Z</time>
      </trkpt>
      <trkpt lat="46.025801030918956" lon="8.238991973921657">
        <ele>811.97003199999995</ele>
        <time>2015-03-28T13:57:30Z</time>
      </trkpt>
      <trkpt lat="46.025705980136991" lon="8.239011000841856">
        <ele>809.089966</ele>
        <time>2015-03-28T13:57:47Z</time>
      </trkpt>
      <trkpt lat="46.025561979040504" lon="8.239016029983759">
        <ele>806.20001200000002</ele>
        <time>2015-03-28T13:58:05Z</time>
      </trkpt>
      <trkpt lat="46.025498025119305" lon="8.239046037197113">
        <ele>802.84002699999996</ele>
        <time>2015-03-28T13:58:19Z</time>
      </trkpt>
      <trkpt lat="46.025434993207455" lon="8.239177968353033">
        <ele>799.94995100000006</ele>
        <time>2015-03-28T13:58:33Z</time>
      </trkpt>
      <trkpt lat="46.025432981550694" lon="8.239409979432821">
        <ele>797.07000700000003</ele>
        <time>2015-03-28T13:58:51Z</time>
      </trkpt>
      <trkpt lat="46.02531798183918" lon="8.239429006353021">
        <ele>794.19006300000001</ele>
        <time>2015-03-28T13:59:05Z</time>
      </trkpt>
      <trkpt lat="46.025250004604459" lon="8.239455996081233">
        <ele>793.21997099999999</ele>
        <time>2015-03-28T13:59:13Z</time>
      </trkpt>
      <trkpt lat="46.025146991014481" lon="8.239524979144335">
        <ele>790.81994599999996</ele>
        <time>2015-03-28T13:59:25Z</time>
      </trkpt>
      <trkpt lat="46.025136010721326" lon="8.239526990801096">
        <ele>790.34002699999996</ele>
        <time>2015-03-28T13:59:33Z</time>
      </trkpt>
      <trkpt lat="46.025083037093282" lon="8.239461025223136">
        <ele>789.86004600000001</ele>
        <time>2015-03-28T13:59:53Z</time>
      </trkpt>
      <trkpt lat="46.025038026273251" lon="8.239531014114618">
        <ele>788.419983</ele>
        <time>2015-03-28T14:00:15Z</time>
      </trkpt>
      <trkpt lat="46.024872986599803" lon="8.239596979692578">
        <ele>785.04998799999998</ele>
        <time>2015-03-28T14:00:27Z</time>
      </trkpt>
      <trkpt lat="46.024864017963409" lon="8.239645007997751">
        <ele>783.60998500000005</ele>
        <time>2015-03-28T14:00:33Z</time>
      </trkpt>
      <trkpt lat="46.024783970788121" lon="8.239648025482893">
        <ele>782.169983</ele>
        <time>2015-03-28T14:00:42Z</time>
      </trkpt>
      <trkpt lat="46.024790005758405" lon="8.239630004391074">
        <ele>781.69006300000001</ele>
        <time>2015-03-28T14:00:44Z</time>
      </trkpt>
      <trkpt lat="46.024613985791802" lon="8.239679960533977">
        <ele>777.84002699999996</ele>
        <time>2015-03-28T14:00:58Z</time>
      </trkpt>
      <trkpt lat="46.024652039632201" lon="8.239509975537658">
        <ele>777.36004600000001</ele>
        <time>2015-03-28T14:01:09Z</time>
      </trkpt>
      <trkpt lat="46.024711970239878" lon="8.239479968324304">
        <ele>777.84002699999996</ele>
        <time>2015-03-28T14:01:22Z</time>
      </trkpt>
      <trkpt lat="46.024737032130361" lon="8.239464964717627">
        <ele>779.77002000000005</ele>
        <time>2015-03-28T14:01:48Z</time>
      </trkpt>
      <trkpt lat="46.024763016030192" lon="8.239568984135985">
        <ele>781.69006300000001</ele>
        <time>2015-03-28T14:02:50Z</time>
      </trkpt>
      <trkpt lat="46.02484499104321" lon="8.239689012989402">
        <ele>782.64996299999996</ele>
        <time>2015-03-28T14:03:49Z</time>
      </trkpt>
      <trkpt lat="46.02473602630198" lon="8.239656994119287">
        <ele>781.20996100000002</ele>
        <time>2015-03-28T14:05:03Z</time>
      </trkpt>
      <trkpt lat="46.024836022406816" lon="8.239740980789065">
        <ele>780.25</ele>
        <time>2015-03-28T14:05:42Z</time>
      </trkpt>
      <trkpt lat="46.024768967181444" lon="8.239966034889221">
        <ele>779.77002000000005</ele>
        <time>2015-03-28T14:06:01Z</time>
      </trkpt>
      <trkpt lat="46.024695038795471" lon="8.240012973546982">
        <ele>779.29003899999998</ele>
        <time>2015-03-28T14:06:19Z</time>
      </trkpt>
      <trkpt lat="46.024652039632201" lon="8.239913983270526">
        <ele>779.29003899999998</ele>
        <time>2015-03-28T14:06:38Z</time>
      </trkpt>
      <trkpt lat="46.024631001055241" lon="8.240049015730619">
        <ele>776.40002400000003</ele>
        <time>2015-03-28T14:07:13Z</time>
      </trkpt>
      <trkpt lat="46.024613985791802" lon="8.240116992965341">
        <ele>773.51995799999997</ele>
        <time>2015-03-28T14:07:26Z</time>
      </trkpt>
      <trkpt lat="46.024539973586798" lon="8.240168960765004">
        <ele>770.14996299999996</ele>
        <time>2015-03-28T14:07:38Z</time>
      </trkpt>
      <trkpt lat="46.024493034929037" lon="8.240065025165677">
        <ele>767.27002000000005</ele>
        <time>2015-03-28T14:07:52Z</time>
      </trkpt>
      <trkpt lat="46.024417011067271" lon="8.240101989358664">
        <ele>764.39001499999995</ele>
        <time>2015-03-28T14:08:03Z</time>
      </trkpt>
      <trkpt lat="46.024382980540395" lon="8.240027977153659">
        <ele>762.94000200000005</ele>
        <time>2015-03-28T14:08:09Z</time>
      </trkpt>
      <trkpt lat="46.024384992197156" lon="8.239977015182376">
        <ele>762.46002199999998</ele>
        <time>2015-03-28T14:08:13Z</time>
      </trkpt>
      <trkpt lat="46.024406030774117" lon="8.239901997148991">
        <ele>759.57995600000004</ele>
        <time>2015-03-28T14:08:25Z</time>
      </trkpt>
      <trkpt lat="46.024342998862267" lon="8.239915994927287">
        <ele>757.17999299999997</ele>
        <time>2015-03-28T14:08:37Z</time>
      </trkpt>
      <trkpt lat="46.024311985820532" lon="8.239853968843818">
        <ele>753.80999799999995</ele>
        <time>2015-03-28T14:08:49Z</time>
      </trkpt>
      <trkpt lat="46.024284996092319" lon="8.23979496024549">
        <ele>750.92999299999997</ele>
        <time>2015-03-28T14:09:03Z</time>
      </trkpt>
      <trkpt lat="46.024245014414191" lon="8.239777022972703">
        <ele>747.55999799999995</ele>
        <time>2015-03-28T14:09:15Z</time>
      </trkpt>
      <trkpt lat="46.024180976673961" lon="8.239829996600747">
        <ele>744.20001200000002</ele>
        <time>2015-03-28T14:09:27Z</time>
      </trkpt>
      <trkpt lat="46.0241789650172" lon="8.239852041006088">
        <ele>744.20001200000002</ele>
        <time>2015-03-28T14:09:29Z</time>
      </trkpt>
      <trkpt lat="46.02420000359416" lon="8.240067958831787">
        <ele>741.79003899999998</ele>
        <time>2015-03-28T14:09:45Z</time>
      </trkpt>
      <trkpt lat="46.024153986945748" lon="8.240067036822438">
        <ele>738.42999299999997</ele>
        <time>2015-03-28T14:10:00Z</time>
      </trkpt>
      <trkpt lat="46.024097995832562" lon="8.240016996860504">
        <ele>735.54998799999998</ele>
        <time>2015-03-28T14:10:16Z</time>
      </trkpt>
      <trkpt lat="46.0240079741925" lon="8.239944996312261">
        <ele>732.17999299999997</ele>
        <time>2015-03-28T14:10:30Z</time>
      </trkpt>
      <trkpt lat="46.023971009999514" lon="8.23996402323246">
        <ele>729.29998799999998</ele>
        <time>2015-03-28T14:10:44Z</time>
      </trkpt>
      <trkpt lat="46.023886017501354" lon="8.239948013797402">
        <ele>726.89001499999995</ele>
        <time>2015-03-28T14:11:05Z</time>
      </trkpt>
      <trkpt lat="46.023909989744425" lon="8.239824967458844">
        <ele>724.01000999999997</ele>
        <time>2015-03-28T14:11:19Z</time>
      </trkpt>
      <trkpt lat="46.023912001401186" lon="8.239737963303924">
        <ele>720.64996299999996</ele>
        <time>2015-03-28T14:11:33Z</time>
      </trkpt>
      <trkpt lat="46.023840000852942" lon="8.239709967747331">
        <ele>717.76000999999997</ele>
        <time>2015-03-28T14:11:47Z</time>
      </trkpt>
      <trkpt lat="46.023815022781491" lon="8.239660011604428">
        <ele>714.40002400000003</ele>
        <time>2015-03-28T14:12:00Z</time>
      </trkpt>
      <trkpt lat="46.023817034438252" lon="8.239589016884565">
        <ele>711.99005099999999</ele>
        <time>2015-03-28T14:12:16Z</time>
      </trkpt>
      <trkpt lat="46.023772023618221" lon="8.239564038813114">
        <ele>710.07000700000003</ele>
        <time>2015-03-28T14:12:41Z</time>
      </trkpt>
      <trkpt lat="46.023781998082995" lon="8.239422971382737">
        <ele>706.70996100000002</ele>
        <time>2015-03-28T14:12:56Z</time>
      </trkpt>
      <trkpt lat="46.023788033053279" lon="8.239381983876228">
        <ele>703.339966</ele>
        <time>2015-03-28T14:13:10Z</time>
      </trkpt>
      <trkpt lat="46.023733969777822" lon="8.239344013854861">
        <ele>699.97997999999995</ele>
        <time>2015-03-28T14:13:25Z</time>
      </trkpt>
      <trkpt lat="46.023765988647938" lon="8.239267989993095">
        <ele>697.57000700000003</ele>
        <time>2015-03-28T14:13:38Z</time>
      </trkpt>
      <trkpt lat="46.023758025839925" lon="8.239200012758374">
        <ele>694.69000200000005</ele>
        <time>2015-03-28T14:13:52Z</time>
      </trkpt>
      <trkpt lat="46.023728018626571" lon="8.239207975566387">
        <ele>691.80999799999995</ele>
        <time>2015-03-28T14:14:06Z</time>
      </trkpt>
      <trkpt lat="46.023690970614552" lon="8.239104961976409">
        <ele>688.92004399999996</ele>
        <time>2015-03-28T14:14:23Z</time>
      </trkpt>
      <trkpt lat="46.023607989773154" lon="8.239058023318648">
        <ele>685.55999799999995</ele>
        <time>2015-03-28T14:14:36Z</time>
      </trkpt>
      <trkpt lat="46.023579994216561" lon="8.239047965034843">
        <ele>684.59997599999997</ele>
        <time>2015-03-28T14:14:43Z</time>
      </trkpt>
      <trkpt lat="46.023483015596867" lon="8.239076966419816">
        <ele>680.74993900000004</ele>
        <time>2015-03-28T14:15:03Z</time>
      </trkpt>
      <trkpt lat="46.02342501282692" lon="8.238978981971741">
        <ele>677.39001499999995</ele>
        <time>2015-03-28T14:15:18Z</time>
      </trkpt>
      <trkpt lat="46.023332979530096" lon="8.239003038033843">
        <ele>674.97997999999995</ele>
        <time>2015-03-28T14:15:29Z</time>
      </trkpt>
      <trkpt lat="46.023298026993871" lon="8.239184003323317">
        <ele>671.62005599999998</ele>
        <time>2015-03-28T14:15:43Z</time>
      </trkpt>
      <trkpt lat="46.02323398925364" lon="8.239086018875241">
        <ele>668.24993900000004</ele>
        <time>2015-03-28T14:16:00Z</time>
      </trkpt>
      <trkpt lat="46.023187972605228" lon="8.239037990570068">
        <ele>665.36999500000002</ele>
        <time>2015-03-28T14:16:13Z</time>
      </trkpt>
      <trkpt lat="46.023198030889034" lon="8.239161958917975">
        <ele>662.00994900000001</ele>
        <time>2015-03-28T14:16:31Z</time>
      </trkpt>
      <trkpt lat="46.023117983713746" lon="8.239164976403117">
        <ele>658.63995399999999</ele>
        <time>2015-03-28T14:16:50Z</time>
      </trkpt>
      <trkpt lat="46.023078002035618" lon="8.239101022481918">
        <ele>655.76000999999997</ele>
        <time>2015-03-28T14:17:05Z</time>
      </trkpt>
      <trkpt lat="46.023070039227605" lon="8.239077972248197">
        <ele>654.30999799999995</ele>
        <time>2015-03-28T14:17:09Z</time>
      </trkpt>
      <trkpt lat="46.023076996207237" lon="8.23906296864152">
        <ele>654.30999799999995</ele>
        <time>2015-03-28T14:17:10Z</time>
      </trkpt>
      <trkpt lat="46.023118989542127" lon="8.2389120105654">
        <ele>651.42999299999997</ele>
        <time>2015-03-28T14:17:27Z</time>
      </trkpt>
      <trkpt lat="46.023084037005901" lon="8.238898012787104">
        <ele>648.55004899999994</ele>
        <time>2015-03-28T14:17:41Z</time>
      </trkpt>
      <trkpt lat="46.023059980943799" lon="8.238888960331678">
        <ele>646.13995399999999</ele>
        <time>2015-03-28T14:17:48Z</time>
      </trkpt>
      <trkpt lat="46.023065010085702" lon="8.238730039447546">
        <ele>643.26000999999997</ele>
        <time>2015-03-28T14:18:01Z</time>
      </trkpt>
      <trkpt lat="46.023136004805565" lon="8.238595006987453">
        <ele>640.85998500000005</ele>
        <time>2015-03-28T14:18:17Z</time>
      </trkpt>
      <trkpt lat="46.02310398593545" lon="8.238472966477275">
        <ele>637.48999000000003</ele>
        <time>2015-03-28T14:18:32Z</time>
      </trkpt>
      <trkpt lat="46.023091999813914" lon="8.238344974815846">
        <ele>634.13000499999998</ele>
        <time>2015-03-28T14:18:56Z</time>
      </trkpt>
      <trkpt lat="46.023086970672011" lon="8.238343968987465">
        <ele>633.65002400000003</ele>
        <time>2015-03-28T14:19:31Z</time>
      </trkpt>
      <trkpt lat="46.023007007315755" lon="8.238401971757412">
        <ele>632.20001200000002</ele>
        <time>2015-03-28T14:20:04Z</time>
      </trkpt>
      <trkpt lat="46.022907011210918" lon="8.238393003121018">
        <ele>628.35998500000005</ele>
        <time>2015-03-28T14:20:20Z</time>
      </trkpt>
      <trkpt lat="46.02282595820725" lon="8.238299963995814">
        <ele>625.96002199999998</ele>
        <time>2015-03-28T14:20:44Z</time>
      </trkpt>
      <trkpt lat="46.022858982905746" lon="8.238344974815846">
        <ele>624.98999000000003</ele>
        <time>2015-03-28T14:21:25Z</time>
      </trkpt>
      <trkpt lat="46.022762004286051" lon="8.238376993685961">
        <ele>622.59002699999996</ele>
        <time>2015-03-28T14:21:45Z</time>
      </trkpt>
      <trkpt lat="46.022664019837976" lon="8.238502973690629">
        <ele>619.71002199999998</ele>
        <time>2015-03-28T14:22:00Z</time>
      </trkpt>
      <trkpt lat="46.022624960169196" lon="8.238592995330691">
        <ele>618.26000999999997</ele>
        <time>2015-03-28T14:22:13Z</time>
      </trkpt>
      <trkpt lat="46.022517001256347" lon="8.238827018067241">
        <ele>614.419983</ele>
        <time>2015-03-28T14:22:39Z</time>
      </trkpt>
      <trkpt lat="46.022471990436316" lon="8.238948974758387">
        <ele>612.97997999999995</ele>
        <time>2015-03-28T14:22:50Z</time>
      </trkpt>
      <trkpt lat="46.022487999871373" lon="8.239046959206462">
        <ele>612.01995799999997</ele>
        <time>2015-03-28T14:22:57Z</time>
      </trkpt>
      <trkpt lat="46.022443994879723" lon="8.239288022741675">
        <ele>609.13000499999998</ele>
        <time>2015-03-28T14:23:19Z</time>
      </trkpt>
      <trkpt lat="46.022426979616284" lon="8.239492038264871">
        <ele>606.25</ele>
        <time>2015-03-28T14:23:36Z</time>
      </trkpt>
      <trkpt lat="46.022384986281395" lon="8.23966202326119">
        <ele>603.35998500000005</ele>
        <time>2015-03-28T14:23:51Z</time>
      </trkpt>
      <trkpt lat="46.022380962967873" lon="8.239860003814101">
        <ele>600</ele>
        <time>2015-03-28T14:24:06Z</time>
      </trkpt>
      <trkpt lat="46.022378029301763" lon="8.239875007420778">
        <ele>600</ele>
        <time>2015-03-28T14:24:07Z</time>
      </trkpt>
      <trkpt lat="46.022239979356527" lon="8.239934016019106">
        <ele>598.080017</ele>
        <time>2015-03-28T14:24:23Z</time>
      </trkpt>
      <trkpt lat="46.02215901017189" lon="8.239967962726951">
        <ele>595.669983</ele>
        <time>2015-03-28T14:24:40Z</time>
      </trkpt>
      <trkpt lat="46.022092960774899" lon="8.24007298797369">
        <ele>593.26995799999997</ele>
        <time>2015-03-28T14:24:59Z</time>
      </trkpt>
      <trkpt lat="46.022227993234992" lon="8.240160997956991">
        <ele>590.86999500000002</ele>
        <time>2015-03-28T14:25:15Z</time>
      </trkpt>
      <trkpt lat="46.022292030975223" lon="8.240402983501554">
        <ele>588.46002199999998</ele>
        <time>2015-03-28T14:25:34Z</time>
      </trkpt>
      <trkpt lat="46.022238973528147" lon="8.240601969882846">
        <ele>586.54003899999998</ele>
        <time>2015-03-28T14:25:49Z</time>
      </trkpt>
      <trkpt lat="46.022165967151523" lon="8.240796010941267">
        <ele>584.14001499999995</ele>
        <time>2015-03-28T14:26:06Z</time>
      </trkpt>
      <trkpt lat="46.022183988243341" lon="8.241003965958953">
        <ele>581.72997999999995</ele>
        <time>2015-03-28T14:26:26Z</time>
      </trkpt>
      <trkpt lat="46.022166972979903" lon="8.24121099896729">
        <ele>579.330017</ele>
        <time>2015-03-28T14:26:44Z</time>
      </trkpt>
      <trkpt lat="46.022164039313793" lon="8.241409985348582">
        <ele>577.40997300000004</ele>
        <time>2015-03-28T14:27:04Z</time>
      </trkpt>
      <trkpt lat="46.022160016000271" lon="8.24159799143672">
        <ele>574.04003899999998</ele>
        <time>2015-03-28T14:27:22Z</time>
      </trkpt>
      <trkpt lat="46.022110981866717" lon="8.241601008921862">
        <ele>573.55999799999995</ele>
        <time>2015-03-28T14:27:25Z</time>
      </trkpt>
      <trkpt lat="46.021968992426991" lon="8.241485003381968">
        <ele>572.59997599999997</ele>
        <time>2015-03-28T14:27:38Z</time>
      </trkpt>
      <trkpt lat="46.021931022405624" lon="8.241376038640738">
        <ele>573.080017</ele>
        <time>2015-03-28T14:27:45Z</time>
      </trkpt>
      <trkpt lat="46.021934961900115" lon="8.241272019222379">
        <ele>573.55999799999995</ele>
        <time>2015-03-28T14:27:59Z</time>
      </trkpt>
      <trkpt lat="46.021934039890766" lon="8.241277970373631">
        <ele>573.080017</ele>
        <time>2015-03-28T14:28:25Z</time>
      </trkpt>
    </trkseg>
  </trk>

</gpx>